DAL149 KATL-SCEL
Flight info
| Callsign | DAL149 |
|---|---|
| Flight time | N/A |
| Altitude | 37000 |
| Route | SMLTZ3 WALET DCT ZPLEN Q79 VAULT/N0490F380 Q79 MCLAW Y442 FUNDI/N0491F370 UM335 LEPON DCT ARNAL/N0490F380 DCT AROVI DCT REKAD DCT ANRAX DCT ARNEL/N0486F390 UM542 AKTUK DCT MIPAS DCT ISREN DCT TOPIX DCT ILMAR/N0480F410 DCT IREMI UL302 TOY DCT EMBAL DCT SIMOK SIMOK7B |
| Aircraft | A359/H-SDE2E3GHIJ3J4J5LM1ORWXY/LB1D1 |
Departure
| Time | 2026-05-04 17:51 |
|---|---|
| Airport | Hartsfield Jackson Atlanta International Airport (KATL) |
Arrival
| Time | N/A |
|---|---|
| Airport | Comodoro Arturo Merino Benítez International Airport (SCEL) |
| Time | Latitude | Longitude | Altitude | Speed | Heading |
|---|---|---|---|---|---|
| 2026-05-04 17:29 | 33.63801 | -84.42048 | 1039 ft | 0 kts | 91° |
| 2026-05-04 17:39 | 33.63801 | -84.42054 | 1042 ft | 4 kts | 91° |
| 2026-05-04 17:40 | 33.63802 | -84.42086 | 1042 ft | 4 kts | 95° |
| 2026-05-04 17:40 | 33.63805 | -84.42118 | 1043 ft | 4 kts | 101° |
| 2026-05-04 17:40 | 33.63812 | -84.42149 | 1043 ft | 4 kts | 110° |
| 2026-05-04 17:40 | 33.63823 | -84.42177 | 1044 ft | 4 kts | 127° |
| 2026-05-04 17:41 | 33.63831 | -84.42189 | 1044 ft | 0 kts | 136° |
| 2026-05-04 17:45 | 33.63830 | -84.42188 | 1044 ft | 1 kts | 136° |
| 2026-05-04 17:45 | 33.63784 | -84.42162 | 1042 ft | 14 kts | 171° |
| 2026-05-04 17:46 | 33.63691 | -84.42151 | 1042 ft | 13 kts | 155° |
| 2026-05-04 17:46 | 33.63650 | -84.42061 | 1042 ft | 13 kts | 89° |
| 2026-05-04 17:46 | 33.63655 | -84.41948 | 1041 ft | 14 kts | 87° |
| 2026-05-04 17:46 | 33.63655 | -84.41828 | 1041 ft | 15 kts | 90° |
| 2026-05-04 17:47 | 33.63655 | -84.41701 | 1041 ft | 16 kts | 90° |
| 2026-05-04 17:47 | 33.63655 | -84.41567 | 1041 ft | 16 kts | 90° |
| 2026-05-04 17:47 | 33.63655 | -84.41428 | 1041 ft | 17 kts | 90° |
| 2026-05-04 17:47 | 33.63656 | -84.41282 | 1041 ft | 18 kts | 90° |
| 2026-05-04 17:48 | 33.63656 | -84.41132 | 1041 ft | 18 kts | 90° |
| 2026-05-04 17:48 | 33.63656 | -84.40976 | 1041 ft | 19 kts | 90° |
| 2026-05-04 17:48 | 33.63645 | -84.40850 | 1042 ft | 3 kts | 125° |
| 2026-05-04 17:48 | 33.63639 | -84.40848 | 1042 ft | 0 kts | 154° |
| 2026-05-04 17:49 | 33.63625 | -84.40842 | 1042 ft | 8 kts | 165° |
| 2026-05-04 17:49 | 33.63538 | -84.40831 | 1042 ft | 1 kts | 181° |
| 2026-05-04 17:50 | 33.63535 | -84.40831 | 1042 ft | 4 kts | 183° |
| 2026-05-04 17:50 | 33.63481 | -84.40908 | 1042 ft | 15 kts | 259° |
| 2026-05-04 17:50 | 33.63473 | -84.41196 | 1040 ft | 64 kts | 270° |
| 2026-05-04 17:50 | 33.63474 | -84.41953 | 1042 ft | 117 kts | 270° |
| 2026-05-04 17:51 | 33.63473 | -84.43122 | 1041 ft | 162 kts | 270° |
| 2026-05-04 17:51 | 33.63477 | -84.44576 | 1372 ft | 176 kts | 272° |
| 2026-05-04 17:51 | 33.63485 | -84.45766 | 2383 ft | 139 kts | 267° |
| 2026-05-04 17:51 | 33.63456 | -84.47000 | 2611 ft | 158 kts | 268° |
| 2026-05-04 17:52 | 33.63442 | -84.48390 | 2854 ft | 175 kts | 269° |
| 2026-05-04 17:52 | 33.63437 | -84.49928 | 3187 ft | 193 kts | 269° |
| 2026-05-04 17:52 | 33.63435 | -84.51604 | 3545 ft | 209 kts | 268° |
| 2026-05-04 17:52 | 33.63424 | -84.53415 | 3802 ft | 228 kts | 270° |
| 2026-05-04 17:53 | 33.63439 | -84.55371 | 4090 ft | 246 kts | 270° |
| 2026-05-04 17:53 | 33.63449 | -84.57473 | 4581 ft | 258 kts | 270° |
| 2026-05-04 17:53 | 33.63452 | -84.59646 | 5226 ft | 261 kts | 269° |
| 2026-05-04 17:53 | 33.63445 | -84.61842 | 5921 ft | 265 kts | 266° |
| 2026-05-04 17:54 | 33.63116 | -84.64030 | 6682 ft | 269 kts | 250° |
| 2026-05-04 17:54 | 33.62182 | -84.65966 | 7355 ft | 271 kts | 226° |
| 2026-05-04 17:54 | 33.60634 | -84.67217 | 8050 ft | 272 kts | 198° |
| 2026-05-04 17:54 | 33.58768 | -84.67412 | 8790 ft | 273 kts | 170° |
| 2026-05-04 17:55 | 33.57028 | -84.66506 | 9570 ft | 276 kts | 146° |
| 2026-05-04 17:55 | 33.55790 | -84.64734 | 10303 ft | 283 kts | 120° |
| 2026-05-04 17:55 | 33.54842 | -84.62579 | 10702 ft | 300 kts | 119° |
| 2026-05-04 17:55 | 33.53828 | -84.60306 | 11089 ft | 318 kts | 121° |
| 2026-05-04 17:56 | 33.52723 | -84.57988 | 11485 ft | 334 kts | 122° |
| 2026-05-04 17:56 | 33.51302 | -84.55699 | 11790 ft | 348 kts | 135° |
| 2026-05-04 17:56 | 33.49396 | -84.53843 | 12177 ft | 359 kts | 147° |
| 2026-05-04 17:56 | 33.47279 | -84.52193 | 12736 ft | 366 kts | 149° |
| 2026-05-04 17:57 | 33.45094 | -84.50561 | 13339 ft | 373 kts | 149° |
| 2026-05-04 17:57 | 33.42867 | -84.48904 | 13890 ft | 379 kts | 150° |
| 2026-05-04 17:57 | 33.40605 | -84.47227 | 14430 ft | 385 kts | 150° |
| 2026-05-04 17:57 | 33.38311 | -84.45530 | 14997 ft | 389 kts | 150° |
| 2026-05-04 17:58 | 33.35994 | -84.43812 | 15642 ft | 392 kts | 150° |
| 2026-05-04 17:58 | 33.33659 | -84.42090 | 16208 ft | 396 kts | 150° |
| 2026-05-04 17:58 | 33.31300 | -84.40349 | 16801 ft | 400 kts | 150° |
| 2026-05-04 17:58 | 33.28952 | -84.38617 | 17372 ft | 404 kts | 150° |
| 2026-05-04 17:59 | 33.26550 | -84.36851 | 17945 ft | 408 kts | 151° |
| 2026-05-04 17:59 | 33.24120 | -84.35063 | 18492 ft | 412 kts | 151° |
| 2026-05-04 17:59 | 33.19191 | -84.31438 | 19488 ft | 419 kts | 151° |
| 2026-05-04 18:00 | 33.16696 | -84.29602 | 19973 ft | 423 kts | 151° |
| 2026-05-04 18:00 | 33.14170 | -84.27747 | 20468 ft | 427 kts | 151° |
| 2026-05-04 18:00 | 33.11624 | -84.25878 | 21001 ft | 431 kts | 151° |
| 2026-05-04 18:00 | 33.09059 | -84.23998 | 21518 ft | 435 kts | 151° |
| 2026-05-04 18:01 | 33.06463 | -84.22098 | 22012 ft | 439 kts | 152° |
| 2026-05-04 18:01 | 33.03843 | -84.20182 | 22523 ft | 443 kts | 152° |
| 2026-05-04 18:01 | 33.01193 | -84.18267 | 23019 ft | 447 kts | 153° |
| 2026-05-04 18:02 | 32.95470 | -84.15410 | 23941 ft | 449 kts | 165° |
| 2026-05-04 18:02 | 32.92502 | -84.14201 | 24383 ft | 451 kts | 165° |
| 2026-05-04 18:02 | 32.89520 | -84.12984 | 24809 ft | 454 kts | 165° |
| 2026-05-04 18:02 | 32.86529 | -84.11759 | 25240 ft | 457 kts | 165° |
| 2026-05-04 18:03 | 32.83548 | -84.10535 | 25664 ft | 459 kts | 165° |
| 2026-05-04 18:03 | 32.80518 | -84.09292 | 26082 ft | 462 kts | 165° |
| 2026-05-04 18:03 | 32.77467 | -84.08040 | 26490 ft | 465 kts | 166° |
| 2026-05-04 18:03 | 32.74393 | -84.06779 | 26907 ft | 468 kts | 166° |
| 2026-05-04 18:04 | 32.71308 | -84.05514 | 27314 ft | 470 kts | 166° |
| 2026-05-04 18:04 | 32.68205 | -84.04243 | 27727 ft | 473 kts | 166° |
| 2026-05-04 18:04 | 32.61940 | -84.01677 | 28548 ft | 478 kts | 166° |
| 2026-05-04 18:05 | 32.58778 | -84.00383 | 28944 ft | 481 kts | 166° |
| 2026-05-04 18:05 | 32.55602 | -83.99085 | 29340 ft | 484 kts | 166° |
| 2026-05-04 18:05 | 32.52450 | -83.97797 | 29712 ft | 486 kts | 167° |
| 2026-05-04 18:05 | 32.49239 | -83.96487 | 30047 ft | 490 kts | 167° |
| 2026-05-04 18:06 | 32.42763 | -83.93847 | 30667 ft | 494 kts | 167° |
| 2026-05-04 18:06 | 32.39503 | -83.92519 | 30937 ft | 497 kts | 167° |
| 2026-05-04 18:06 | 32.36216 | -83.91183 | 31208 ft | 500 kts | 167° |
| 2026-05-04 18:07 | 32.32907 | -83.89890 | 31464 ft | 501 kts | 169° |
| 2026-05-04 18:07 | 32.29567 | -83.88680 | 31718 ft | 503 kts | 170° |
| 2026-05-04 18:07 | 32.26210 | -83.87507 | 31953 ft | 505 kts | 170° |
| 2026-05-04 18:07 | 32.22832 | -83.86335 | 32189 ft | 507 kts | 170° |
| 2026-05-04 18:08 | 32.19437 | -83.85150 | 32404 ft | 510 kts | 170° |
| 2026-05-04 18:08 | 32.16010 | -83.83944 | 32627 ft | 512 kts | 171° |
| 2026-05-04 18:08 | 32.12601 | -83.82733 | 32938 ft | 513 kts | 171° |
| 2026-05-04 18:08 | 32.09222 | -83.81526 | 33239 ft | 513 kts | 171° |
| 2026-05-04 18:09 | 32.02388 | -83.79082 | 33803 ft | 514 kts | 171° |
| 2026-05-04 18:09 | 31.95534 | -83.76635 | 34356 ft | 514 kts | 171° |
| 2026-05-04 18:10 | 31.92107 | -83.75413 | 34624 ft | 513 kts | 172° |
| 2026-05-04 18:10 | 31.88690 | -83.74196 | 34885 ft | 513 kts | 172° |
| 2026-05-04 18:10 | 31.85268 | -83.72980 | 35125 ft | 513 kts | 172° |
| 2026-05-04 18:10 | 31.81846 | -83.71764 | 35361 ft | 513 kts | 172° |
| 2026-05-04 18:11 | 31.78435 | -83.70554 | 35592 ft | 512 kts | 172° |
| 2026-05-04 18:11 | 31.75020 | -83.69343 | 35825 ft | 512 kts | 172° |
| 2026-05-04 18:11 | 31.71649 | -83.68148 | 36040 ft | 512 kts | 172° |
| 2026-05-04 18:11 | 31.68245 | -83.66944 | 36257 ft | 512 kts | 172° |
| 2026-05-04 18:12 | 31.64838 | -83.65697 | 36481 ft | 513 kts | 171° |
| 2026-05-04 18:12 | 31.61445 | -83.64396 | 36685 ft | 513 kts | 170° |
| 2026-05-04 18:12 | 31.58036 | -83.63063 | 36907 ft | 513 kts | 170° |
| 2026-05-04 18:12 | 31.54648 | -83.61735 | 37089 ft | 513 kts | 170° |
| 2026-05-04 18:13 | 31.47823 | -83.59092 | 37125 ft | 519 kts | 170° |
| 2026-05-04 18:14 | 31.37592 | -83.55169 | 37127 ft | 518 kts | 170° |
| 2026-05-04 18:14 | 31.30737 | -83.52553 | 37122 ft | 517 kts | 170° |
| 2026-05-04 18:15 | 31.17041 | -83.47339 | 37111 ft | 517 kts | 170° |
| 2026-05-04 18:16 | 31.10199 | -83.44740 | 37101 ft | 517 kts | 170° |
| 2026-05-04 18:16 | 31.03353 | -83.42143 | 37101 ft | 517 kts | 170° |
| 2026-05-04 18:17 | 30.93120 | -83.38268 | 37101 ft | 516 kts | 170° |
| 2026-05-04 18:18 | 30.82863 | -83.34394 | 37114 ft | 516 kts | 170° |
| 2026-05-04 18:18 | 30.76035 | -83.31820 | 37120 ft | 516 kts | 170° |
| 2026-05-04 18:19 | 30.65962 | -83.27233 | 37113 ft | 523 kts | 163° |
| 2026-05-04 18:19 | 30.59340 | -83.23679 | 37115 ft | 524 kts | 162° |
| 2026-05-04 18:20 | 30.53371 | -83.20441 | 37110 ft | 524 kts | 162° |
| 2026-05-04 18:20 | 30.46753 | -83.16868 | 37114 ft | 524 kts | 162° |
| 2026-05-04 18:21 | 30.41252 | -83.13914 | 37112 ft | 523 kts | 162° |
| 2026-05-04 18:21 | 30.34648 | -83.10376 | 37113 ft | 523 kts | 162° |
| 2026-05-04 18:22 | 30.28043 | -83.06844 | 37113 ft | 522 kts | 162° |
| 2026-05-04 18:22 | 30.21444 | -83.03320 | 37110 ft | 522 kts | 162° |
| 2026-05-04 18:23 | 30.15454 | -83.00127 | 37111 ft | 522 kts | 162° |
| 2026-05-04 18:23 | 30.08858 | -82.96614 | 37097 ft | 521 kts | 162° |
| 2026-05-04 18:24 | 30.02314 | -82.93133 | 37105 ft | 520 kts | 162° |
| 2026-05-04 18:24 | 29.95703 | -82.89623 | 37107 ft | 520 kts | 162° |
| 2026-05-04 18:25 | 29.89170 | -82.86160 | 37103 ft | 519 kts | 162° |
| 2026-05-04 18:25 | 29.82605 | -82.82690 | 37100 ft | 519 kts | 162° |
| 2026-05-04 18:26 | 29.76055 | -82.79223 | 37102 ft | 518 kts | 162° |
| 2026-05-04 18:26 | 29.69499 | -82.75764 | 37096 ft | 518 kts | 162° |
| 2026-05-04 18:27 | 29.62951 | -82.72310 | 37097 ft | 517 kts | 162° |
| 2026-05-04 18:27 | 29.56396 | -82.68857 | 37093 ft | 517 kts | 162° |
| 2026-05-04 18:28 | 29.49857 | -82.65420 | 37094 ft | 516 kts | 162° |
| 2026-05-04 18:28 | 29.43355 | -82.62007 | 37092 ft | 516 kts | 162° |
| 2026-05-04 18:29 | 29.36824 | -82.58585 | 37093 ft | 516 kts | 162° |
| 2026-05-04 18:29 | 29.30288 | -82.55164 | 37093 ft | 515 kts | 162° |
| 2026-05-04 18:30 | 29.23621 | -82.52463 | 37099 ft | 501 kts | 176° |
| 2026-05-04 18:30 | 29.20213 | -82.51702 | 37096 ft | 498 kts | 177° |
| 2026-05-04 18:31 | 29.13379 | -82.50421 | 37094 ft | 497 kts | 178° |
| 2026-05-04 18:31 | 29.06577 | -82.49233 | 37089 ft | 497 kts | 178° |
| 2026-05-04 18:32 | 28.99736 | -82.48022 | 37087 ft | 497 kts | 178° |
| 2026-05-04 18:32 | 28.92896 | -82.46791 | 37092 ft | 497 kts | 178° |
| 2026-05-04 18:33 | 28.86076 | -82.45557 | 37097 ft | 496 kts | 178° |
| 2026-05-04 18:33 | 28.79252 | -82.44325 | 37097 ft | 496 kts | 178° |
| 2026-05-04 18:34 | 28.72469 | -82.43102 | 37097 ft | 496 kts | 178° |
| 2026-05-04 18:34 | 28.65651 | -82.41875 | 37095 ft | 496 kts | 178° |
| 2026-05-04 18:35 | 28.58843 | -82.40652 | 37097 ft | 496 kts | 178° |
| 2026-05-04 18:35 | 28.52018 | -82.39427 | 37099 ft | 495 kts | 178° |
| 2026-05-04 18:36 | 28.45206 | -82.38205 | 37097 ft | 495 kts | 178° |
| 2026-05-04 18:36 | 28.38418 | -82.36989 | 37097 ft | 495 kts | 178° |
| 2026-05-04 18:37 | 28.31619 | -82.35773 | 37090 ft | 494 kts | 178° |
| 2026-05-04 18:37 | 28.24866 | -82.34566 | 37093 ft | 494 kts | 178° |
| 2026-05-04 18:38 | 28.18085 | -82.33357 | 37093 ft | 493 kts | 178° |
| 2026-05-04 18:38 | 28.11307 | -82.32150 | 37070 ft | 492 kts | 178° |
| 2026-05-04 18:39 | 28.04532 | -82.30918 | 37067 ft | 495 kts | 176° |
| 2026-05-04 18:39 | 27.97828 | -82.28897 | 37069 ft | 500 kts | 171° |
| 2026-05-04 18:40 | 27.91154 | -82.26624 | 37078 ft | 500 kts | 170° |
| 2026-05-04 18:40 | 27.84794 | -82.24421 | 37086 ft | 500 kts | 171° |
| 2026-05-04 18:41 | 27.78178 | -82.22145 | 37073 ft | 499 kts | 171° |
| 2026-05-04 18:41 | 27.71490 | -82.19858 | 37069 ft | 499 kts | 171° |
| 2026-05-04 18:42 | 27.64886 | -82.17609 | 37067 ft | 499 kts | 171° |
| 2026-05-04 18:42 | 27.58201 | -82.15335 | 37068 ft | 498 kts | 171° |
| 2026-05-04 18:43 | 27.51603 | -82.13092 | 37067 ft | 498 kts | 171° |
| 2026-05-04 18:43 | 27.44956 | -82.10836 | 37065 ft | 498 kts | 171° |
| 2026-05-04 18:44 | 27.38313 | -82.08583 | 37063 ft | 498 kts | 171° |
| 2026-05-04 18:44 | 27.31731 | -82.06354 | 37061 ft | 497 kts | 171° |
| 2026-05-04 18:45 | 27.25093 | -82.04109 | 37061 ft | 497 kts | 171° |
| 2026-05-04 18:45 | 27.18460 | -82.01868 | 37060 ft | 497 kts | 171° |
| 2026-05-04 18:46 | 27.11830 | -81.99632 | 37061 ft | 497 kts | 171° |
| 2026-05-04 18:46 | 27.05268 | -81.97040 | 37065 ft | 505 kts | 163° |
| 2026-05-04 18:47 | 26.98939 | -81.93690 | 37060 ft | 508 kts | 161° |
| 2026-05-04 18:47 | 26.92582 | -81.90179 | 37062 ft | 508 kts | 161° |
| 2026-05-04 18:48 | 26.86226 | -81.86664 | 37059 ft | 508 kts | 161° |
| 2026-05-04 18:48 | 26.79912 | -81.83195 | 37054 ft | 508 kts | 161° |
| 2026-05-04 18:49 | 26.73553 | -81.79718 | 37034 ft | 508 kts | 161° |
| 2026-05-04 18:49 | 26.67242 | -81.76273 | 37036 ft | 508 kts | 161° |
| 2026-05-04 18:50 | 26.60871 | -81.72799 | 37047 ft | 508 kts | 161° |
| 2026-05-04 18:50 | 26.54547 | -81.69353 | 37039 ft | 508 kts | 161° |
| 2026-05-04 18:51 | 26.48183 | -81.65891 | 37039 ft | 508 kts | 161° |
| 2026-05-04 18:51 | 26.41813 | -81.62429 | 37042 ft | 508 kts | 161° |
| 2026-05-04 18:52 | 26.35449 | -81.58975 | 37037 ft | 508 kts | 161° |
| 2026-05-04 18:52 | 26.29081 | -81.55523 | 37029 ft | 508 kts | 161° |
| 2026-05-04 18:53 | 26.22753 | -81.52097 | 37029 ft | 509 kts | 161° |
| 2026-05-04 18:53 | 26.16387 | -81.48655 | 37031 ft | 509 kts | 161° |
| 2026-05-04 18:54 | 26.09952 | -81.45450 | 37035 ft | 501 kts | 169° |
| 2026-05-04 18:54 | 26.03329 | -81.43078 | 37033 ft | 499 kts | 171° |
| 2026-05-04 18:55 | 25.96720 | -81.40867 | 37027 ft | 501 kts | 171° |
| 2026-05-04 18:55 | 25.86599 | -81.37513 | 37023 ft | 511 kts | 171° |
| 2026-05-04 18:56 | 25.79783 | -81.35231 | 37019 ft | 511 kts | 171° |
| 2026-05-04 18:56 | 25.72961 | -81.32941 | 37029 ft | 511 kts | 171° |
| 2026-05-04 18:57 | 25.66151 | -81.30661 | 37016 ft | 511 kts | 171° |
| 2026-05-04 18:57 | 25.59338 | -81.28386 | 37016 ft | 511 kts | 171° |
| 2026-05-04 18:58 | 25.52514 | -81.26110 | 37016 ft | 511 kts | 171° |
| 2026-05-04 18:58 | 25.45698 | -81.23839 | 37011 ft | 511 kts | 171° |
| 2026-05-04 18:59 | 25.38880 | -81.21569 | 37015 ft | 511 kts | 171° |
| 2026-05-04 18:59 | 25.32095 | -81.19314 | 37010 ft | 511 kts | 171° |
| 2026-05-04 19:00 | 25.25270 | -81.17048 | 37007 ft | 512 kts | 171° |
| 2026-05-04 19:00 | 25.18450 | -81.14788 | 37008 ft | 512 kts | 171° |
| 2026-05-04 19:01 | 25.11618 | -81.12526 | 37009 ft | 512 kts | 171° |
| 2026-05-04 19:01 | 25.04792 | -81.10269 | 37011 ft | 512 kts | 171° |
| 2026-05-04 19:02 | 24.98012 | -81.08029 | 37014 ft | 512 kts | 171° |
| 2026-05-04 19:02 | 24.91180 | -81.05773 | 37022 ft | 512 kts | 171° |
| 2026-05-04 19:03 | 24.84359 | -81.03524 | 37020 ft | 512 kts | 171° |
| 2026-05-04 19:03 | 24.77508 | -81.01483 | 37024 ft | 504 kts | 179° |
| 2026-05-04 19:04 | 24.74063 | -81.01130 | 37129 ft | 492 kts | 188° |
| 2026-05-04 19:04 | 24.70653 | -81.01112 | 37275 ft | 489 kts | 189° |
| 2026-05-04 19:04 | 24.67254 | -81.01190 | 37406 ft | 487 kts | 190° |
| 2026-05-04 19:04 | 24.63865 | -81.01317 | 37520 ft | 486 kts | 191° |
| 2026-05-04 19:05 | 24.60488 | -81.01462 | 37639 ft | 485 kts | 191° |
| 2026-05-04 19:05 | 24.57121 | -81.01608 | 37757 ft | 485 kts | 191° |
| 2026-05-04 19:05 | 24.53746 | -81.01732 | 37859 ft | 486 kts | 190° |
| 2026-05-04 19:05 | 24.50348 | -81.01751 | 37956 ft | 488 kts | 188° |
| 2026-05-04 19:06 | 24.43593 | -81.01641 | 38016 ft | 489 kts | 188° |
| 2026-05-04 19:06 | 24.36770 | -81.01520 | 38011 ft | 488 kts | 188° |
| 2026-05-04 19:07 | 24.29978 | -81.01443 | 38013 ft | 488 kts | 188° |
| 2026-05-04 19:07 | 24.24344 | -81.01393 | 37660 ft | 483 kts | 188° |
| 2026-05-04 19:08 | 24.19851 | -81.01357 | 37090 ft | 483 kts | 188° |
| 2026-05-04 19:08 | 24.17618 | -81.01342 | 37029 ft | 486 kts | 188° |
| 2026-05-04 19:08 | 24.10807 | -81.01295 | 37023 ft | 491 kts | 188° |
| 2026-05-04 19:09 | 24.03963 | -81.01237 | 37018 ft | 491 kts | 188° |
| 2026-05-04 19:09 | 23.97171 | -81.01153 | 37004 ft | 482 kts | 187° |
| 2026-05-04 19:10 | 23.91623 | -81.00922 | 37010 ft | 478 kts | 186° |
| 2026-05-04 19:10 | 23.83819 | -81.00536 | 37011 ft | 481 kts | 186° |
| 2026-05-04 19:11 | 23.77161 | -81.00234 | 37013 ft | 482 kts | 186° |
| 2026-05-04 19:11 | 23.70448 | -80.99946 | 37013 ft | 481 kts | 186° |
| 2026-05-04 19:12 | 23.60595 | -80.99533 | 37006 ft | 481 kts | 186° |
| 2026-05-04 19:13 | 23.53900 | -80.99252 | 37006 ft | 481 kts | 186° |
| 2026-05-04 19:13 | 23.47235 | -80.98972 | 37009 ft | 482 kts | 186° |
| 2026-05-04 19:14 | 23.40542 | -80.98690 | 37168 ft | 481 kts | 186° |
| 2026-05-04 19:14 | 23.37203 | -80.98548 | 37408 ft | 480 kts | 186° |
| 2026-05-04 19:14 | 23.33861 | -80.98408 | 37504 ft | 481 kts | 186° |
| 2026-05-04 19:14 | 23.30501 | -80.98269 | 37609 ft | 483 kts | 186° |
| 2026-05-04 19:15 | 23.27140 | -80.98131 | 37667 ft | 485 kts | 186° |
| 2026-05-04 19:15 | 23.20346 | -80.97855 | 37773 ft | 489 kts | 186° |
| 2026-05-04 19:16 | 23.13564 | -80.97566 | 37854 ft | 493 kts | 186° |
| 2026-05-04 19:16 | 23.06688 | -80.97273 | 37918 ft | 496 kts | 186° |
| 2026-05-04 19:17 | 22.99748 | -80.96976 | 37903 ft | 499 kts | 185° |
| 2026-05-04 19:17 | 22.92794 | -80.96693 | 37894 ft | 500 kts | 185° |
| 2026-05-04 19:18 | 22.85848 | -80.96419 | 38136 ft | 496 kts | 186° |
| 2026-05-04 19:18 | 22.82420 | -80.96279 | 38559 ft | 490 kts | 186° |
| 2026-05-04 19:18 | 22.79062 | -80.96144 | 38794 ft | 487 kts | 186° |
| 2026-05-04 19:18 | 22.75671 | -80.96011 | 38935 ft | 486 kts | 186° |
| 2026-05-04 19:19 | 22.72283 | -80.95881 | 38988 ft | 487 kts | 186° |
| 2026-05-04 19:19 | 22.65517 | -80.95621 | 38996 ft | 486 kts | 187° |
| 2026-05-04 19:20 | 22.58759 | -80.95360 | 38998 ft | 486 kts | 187° |
| 2026-05-04 19:20 | 22.51995 | -80.95097 | 38996 ft | 486 kts | 187° |
| 2026-05-04 19:21 | 22.45231 | -80.94837 | 39005 ft | 492 kts | 187° |
| 2026-05-04 19:21 | 22.38533 | -80.94579 | 39000 ft | 496 kts | 186° |
| 2026-05-04 19:22 | 22.31650 | -80.94310 | 39003 ft | 499 kts | 186° |
| 2026-05-04 19:22 | 22.24697 | -80.94036 | 39002 ft | 499 kts | 186° |
| 2026-05-04 19:23 | 22.17744 | -80.93763 | 39006 ft | 499 kts | 186° |
| 2026-05-04 19:23 | 22.10793 | -80.93492 | 39006 ft | 499 kts | 186° |
| 2026-05-04 19:24 | 22.03893 | -80.93225 | 38999 ft | 500 kts | 186° |
| 2026-05-04 19:24 | 21.96922 | -80.92955 | 39003 ft | 500 kts | 186° |
| 2026-05-04 19:25 | 21.90011 | -80.92687 | 39004 ft | 501 kts | 186° |
| 2026-05-04 19:25 | 21.83032 | -80.92417 | 39005 ft | 501 kts | 186° |
| 2026-05-04 19:26 | 21.76068 | -80.92148 | 39009 ft | 501 kts | 186° |
| 2026-05-04 19:26 | 21.69092 | -80.91879 | 39008 ft | 501 kts | 186° |
| 2026-05-04 19:27 | 21.62166 | -80.91612 | 39008 ft | 501 kts | 186° |
| 2026-05-04 19:27 | 21.55181 | -80.91343 | 39007 ft | 501 kts | 186° |
| 2026-05-04 19:28 | 21.48210 | -80.91076 | 39005 ft | 501 kts | 186° |
| 2026-05-04 19:28 | 21.41236 | -80.90805 | 39006 ft | 501 kts | 186° |
| 2026-05-04 19:29 | 21.34261 | -80.90533 | 39011 ft | 501 kts | 186° |
| 2026-05-04 19:29 | 21.27352 | -80.90265 | 39009 ft | 501 kts | 185° |
| 2026-05-04 19:30 | 21.20377 | -80.89995 | 39017 ft | 501 kts | 185° |
| 2026-05-04 19:30 | 21.13414 | -80.89726 | 39012 ft | 501 kts | 185° |
| 2026-05-04 19:31 | 21.06447 | -80.89458 | 39008 ft | 501 kts | 185° |
| 2026-05-04 19:31 | 20.99491 | -80.89173 | 39007 ft | 501 kts | 185° |
| 2026-05-04 19:32 | 20.92501 | -80.88853 | 39006 ft | 501 kts | 185° |
| 2026-05-04 19:32 | 20.85567 | -80.88539 | 39008 ft | 501 kts | 185° |
| 2026-05-04 19:33 | 20.78746 | -80.88238 | 39007 ft | 501 kts | 185° |
| 2026-05-04 19:33 | 20.71650 | -80.87928 | 39006 ft | 501 kts | 185° |
| 2026-05-04 19:34 | 20.64688 | -80.87624 | 39003 ft | 501 kts | 185° |
| 2026-05-04 19:34 | 20.57722 | -80.87320 | 39004 ft | 501 kts | 184° |
| 2026-05-04 19:35 | 20.50751 | -80.87015 | 39005 ft | 501 kts | 184° |
| 2026-05-04 19:35 | 20.43820 | -80.86712 | 39006 ft | 501 kts | 184° |
| 2026-05-04 19:36 | 20.36841 | -80.86408 | 39006 ft | 501 kts | 184° |
| 2026-05-04 19:36 | 20.29869 | -80.86104 | 39009 ft | 501 kts | 184° |
| 2026-05-04 19:37 | 20.22926 | -80.85803 | 39006 ft | 502 kts | 184° |
| 2026-05-04 19:37 | 20.15945 | -80.85499 | 39005 ft | 502 kts | 184° |
| 2026-05-04 19:38 | 20.08956 | -80.85195 | 39005 ft | 502 kts | 184° |
| 2026-05-04 19:38 | 20.01955 | -80.84892 | 39000 ft | 502 kts | 184° |
| 2026-05-04 19:39 | 19.94955 | -80.84580 | 38999 ft | 502 kts | 184° |
| 2026-05-04 19:39 | 19.87968 | -80.84238 | 39003 ft | 502 kts | 184° |
| 2026-05-04 19:40 | 19.81032 | -80.83897 | 39000 ft | 502 kts | 184° |
| 2026-05-04 19:40 | 19.74058 | -80.83559 | 39002 ft | 501 kts | 184° |
| 2026-05-04 19:41 | 19.67088 | -80.83224 | 38996 ft | 501 kts | 183° |
| 2026-05-04 19:41 | 19.60116 | -80.82890 | 38998 ft | 501 kts | 183° |
| 2026-05-04 19:42 | 19.53154 | -80.82557 | 38999 ft | 500 kts | 183° |
| 2026-05-04 19:42 | 19.46201 | -80.82224 | 38998 ft | 500 kts | 183° |
| 2026-05-04 19:43 | 19.39265 | -80.81893 | 38998 ft | 499 kts | 183° |
| 2026-05-04 19:43 | 19.32322 | -80.81561 | 39000 ft | 499 kts | 183° |
| 2026-05-04 19:44 | 19.25394 | -80.81230 | 38998 ft | 498 kts | 183° |
| 2026-05-04 19:44 | 19.18500 | -80.80902 | 38998 ft | 498 kts | 183° |
| 2026-05-04 19:45 | 19.11584 | -80.80572 | 38994 ft | 498 kts | 183° |
| 2026-05-04 19:45 | 19.04649 | -80.80242 | 38996 ft | 498 kts | 183° |
| 2026-05-04 19:46 | 18.97732 | -80.79913 | 38995 ft | 497 kts | 183° |
| 2026-05-04 19:46 | 18.90813 | -80.79585 | 38993 ft | 497 kts | 183° |
| 2026-05-04 19:47 | 18.83890 | -80.79256 | 38994 ft | 497 kts | 183° |
| 2026-05-04 19:47 | 18.77011 | -80.78930 | 38996 ft | 497 kts | 183° |
| 2026-05-04 19:48 | 18.70093 | -80.78602 | 38994 ft | 498 kts | 183° |
| 2026-05-04 19:48 | 18.63161 | -80.78274 | 38993 ft | 498 kts | 182° |
| 2026-05-04 19:49 | 18.56241 | -80.77946 | 38993 ft | 498 kts | 182° |
| 2026-05-04 19:49 | 18.49305 | -80.77619 | 38989 ft | 498 kts | 182° |
| 2026-05-04 19:50 | 18.42385 | -80.77292 | 38989 ft | 498 kts | 182° |
| 2026-05-04 19:50 | 18.35493 | -80.76966 | 38989 ft | 498 kts | 182° |
| 2026-05-04 19:51 | 18.28561 | -80.76639 | 38991 ft | 499 kts | 182° |
| 2026-05-04 19:51 | 18.21611 | -80.76312 | 38987 ft | 499 kts | 182° |
| 2026-05-04 19:52 | 18.14676 | -80.75986 | 38987 ft | 499 kts | 182° |
| 2026-05-04 19:52 | 18.07728 | -80.75658 | 38987 ft | 499 kts | 182° |
| 2026-05-04 19:53 | 18.00786 | -80.75332 | 38989 ft | 499 kts | 182° |
| 2026-05-04 19:53 | 17.93854 | -80.75006 | 38986 ft | 498 kts | 182° |
| 2026-05-04 19:54 | 17.86973 | -80.74683 | 38983 ft | 498 kts | 182° |
| 2026-05-04 19:54 | 17.80038 | -80.74357 | 38981 ft | 498 kts | 181° |
| 2026-05-04 19:55 | 17.73118 | -80.74033 | 38982 ft | 498 kts | 181° |
| 2026-05-04 19:55 | 17.67367 | -80.73764 | 38980 ft | 497 kts | 181° |
| 2026-05-04 19:56 | 17.60446 | -80.73440 | 38979 ft | 497 kts | 181° |
| 2026-05-04 19:56 | 17.53532 | -80.73117 | 38979 ft | 497 kts | 181° |
| 2026-05-04 19:57 | 17.46625 | -80.72794 | 38980 ft | 496 kts | 181° |
| 2026-05-04 19:57 | 17.39713 | -80.72471 | 38974 ft | 496 kts | 181° |
| 2026-05-04 19:58 | 17.32856 | -80.72151 | 38979 ft | 497 kts | 181° |
| 2026-05-04 19:58 | 17.25939 | -80.71829 | 38981 ft | 497 kts | 181° |
| 2026-05-04 19:59 | 17.19007 | -80.71506 | 38979 ft | 498 kts | 181° |
| 2026-05-04 19:59 | 17.12067 | -80.71183 | 38977 ft | 499 kts | 181° |
| 2026-05-04 20:00 | 17.05132 | -80.70860 | 38976 ft | 499 kts | 181° |
| 2026-05-04 20:00 | 16.98224 | -80.70539 | 38978 ft | 500 kts | 181° |
| 2026-05-04 20:01 | 16.91256 | -80.70215 | 38971 ft | 501 kts | 181° |
| 2026-05-04 20:01 | 16.84284 | -80.69891 | 38972 ft | 501 kts | 181° |
| 2026-05-04 20:02 | 16.77299 | -80.69567 | 38975 ft | 502 kts | 181° |
| 2026-05-04 20:02 | 16.70305 | -80.69243 | 38967 ft | 503 kts | 181° |
| 2026-05-04 20:03 | 16.63359 | -80.68921 | 38982 ft | 503 kts | 181° |
| 2026-05-04 20:03 | 16.56362 | -80.68597 | 38965 ft | 503 kts | 181° |
| 2026-05-04 20:04 | 16.49372 | -80.68273 | 38965 ft | 502 kts | 181° |
| 2026-05-04 20:04 | 16.42392 | -80.67951 | 38973 ft | 502 kts | 180° |
| 2026-05-04 20:05 | 16.35411 | -80.67628 | 38963 ft | 502 kts | 180° |
| 2026-05-04 20:05 | 16.28439 | -80.67307 | 38960 ft | 501 kts | 180° |
| 2026-05-04 20:06 | 16.21471 | -80.66985 | 38969 ft | 501 kts | 180° |
| 2026-05-04 20:06 | 16.14497 | -80.66664 | 38968 ft | 501 kts | 180° |
| 2026-05-04 20:07 | 16.07533 | -80.66343 | 38968 ft | 501 kts | 180° |
| 2026-05-04 20:07 | 16.00615 | -80.66025 | 38971 ft | 501 kts | 180° |
| 2026-05-04 20:08 | 15.93637 | -80.65704 | 38957 ft | 501 kts | 180° |
| 2026-05-04 20:08 | 15.86665 | -80.65383 | 38965 ft | 501 kts | 180° |
| 2026-05-04 20:09 | 15.79694 | -80.65063 | 38960 ft | 501 kts | 180° |
| 2026-05-04 20:09 | 15.72733 | -80.64744 | 38966 ft | 500 kts | 180° |
| 2026-05-04 20:10 | 15.65809 | -80.64426 | 38966 ft | 500 kts | 180° |
| 2026-05-04 20:10 | 15.58851 | -80.64107 | 38960 ft | 500 kts | 180° |
| 2026-05-04 20:11 | 15.51900 | -80.63789 | 38958 ft | 500 kts | 180° |
| 2026-05-04 20:11 | 15.44945 | -80.63471 | 38948 ft | 500 kts | 180° |
| 2026-05-04 20:12 | 15.37998 | -80.63153 | 38958 ft | 499 kts | 180° |
| 2026-05-04 20:12 | 15.31059 | -80.62836 | 38951 ft | 499 kts | 180° |
| 2026-05-04 20:13 | 15.24125 | -80.62519 | 38954 ft | 498 kts | 180° |
| 2026-05-04 20:13 | 15.17207 | -80.62203 | 38955 ft | 498 kts | 180° |
| 2026-05-04 20:14 | 15.10315 | -80.61889 | 38957 ft | 498 kts | 180° |
| 2026-05-04 20:14 | 15.03391 | -80.61573 | 38949 ft | 497 kts | 180° |
| 2026-05-04 20:15 | 14.96476 | -80.61342 | 38949 ft | 496 kts | 183° |
| 2026-05-04 20:15 | 14.89587 | -80.61670 | 38954 ft | 495 kts | 186° |
| 2026-05-04 20:16 | 14.82716 | -80.62110 | 38943 ft | 495 kts | 185° |
| 2026-05-04 20:16 | 14.75826 | -80.62471 | 38948 ft | 495 kts | 185° |
| 2026-05-04 20:17 | 14.68992 | -80.62775 | 38945 ft | 495 kts | 185° |
| 2026-05-04 20:17 | 14.62086 | -80.63069 | 38946 ft | 495 kts | 184° |
| 2026-05-04 20:18 | 14.55193 | -80.63364 | 38940 ft | 495 kts | 184° |
| 2026-05-04 20:18 | 14.48295 | -80.63662 | 38942 ft | 495 kts | 184° |
| 2026-05-04 20:19 | 14.41445 | -80.63959 | 38940 ft | 495 kts | 184° |
| 2026-05-04 20:19 | 14.34558 | -80.64257 | 38936 ft | 495 kts | 184° |
| 2026-05-04 20:20 | 14.27662 | -80.64556 | 38930 ft | 495 kts | 184° |
| 2026-05-04 20:20 | 14.20795 | -80.64853 | 38938 ft | 496 kts | 184° |
| 2026-05-04 20:21 | 14.13900 | -80.65150 | 38935 ft | 496 kts | 184° |
| 2026-05-04 20:21 | 14.03548 | -80.65597 | 38930 ft | 496 kts | 184° |
| 2026-05-04 20:22 | 13.96652 | -80.65895 | 38936 ft | 496 kts | 184° |
| 2026-05-04 20:22 | 13.89803 | -80.66190 | 38930 ft | 495 kts | 184° |
| 2026-05-04 20:23 | 13.82916 | -80.66487 | 38932 ft | 495 kts | 184° |
| 2026-05-04 20:23 | 13.76023 | -80.66783 | 38930 ft | 495 kts | 184° |
| 2026-05-04 20:24 | 13.69139 | -80.67080 | 38930 ft | 495 kts | 184° |
| 2026-05-04 20:24 | 13.62256 | -80.67376 | 38930 ft | 495 kts | 184° |
| 2026-05-04 20:25 | 13.55376 | -80.67671 | 38928 ft | 494 kts | 184° |
| 2026-05-04 20:25 | 13.48507 | -80.67966 | 38928 ft | 494 kts | 184° |
| 2026-05-04 20:26 | 13.41638 | -80.68261 | 38929 ft | 494 kts | 184° |
| 2026-05-04 20:26 | 13.34773 | -80.68556 | 38925 ft | 493 kts | 184° |
| 2026-05-04 20:27 | 13.27927 | -80.68849 | 38924 ft | 493 kts | 184° |
| 2026-05-04 20:27 | 13.21074 | -80.69143 | 38923 ft | 492 kts | 184° |
| 2026-05-04 20:28 | 13.14228 | -80.69436 | 38925 ft | 492 kts | 184° |
| 2026-05-04 20:28 | 13.07395 | -80.69729 | 38926 ft | 492 kts | 184° |
| 2026-05-04 20:29 | 13.00601 | -80.70020 | 38916 ft | 491 kts | 184° |
| 2026-05-04 20:29 | 12.93767 | -80.70312 | 38919 ft | 491 kts | 184° |
| 2026-05-04 20:30 | 12.86935 | -80.70604 | 38919 ft | 491 kts | 184° |
| 2026-05-04 20:30 | 12.80105 | -80.70896 | 38918 ft | 490 kts | 184° |
| 2026-05-04 20:31 | 12.73283 | -80.71187 | 38919 ft | 490 kts | 184° |
| 2026-05-04 20:31 | 12.66458 | -80.71478 | 38916 ft | 490 kts | 184° |
| 2026-05-04 20:32 | 12.59691 | -80.71767 | 38916 ft | 490 kts | 184° |
| 2026-05-04 20:32 | 12.52874 | -80.72058 | 38913 ft | 489 kts | 183° |
| 2026-05-04 20:33 | 12.46067 | -80.72348 | 38916 ft | 489 kts | 183° |
| 2026-05-04 20:33 | 12.39255 | -80.72638 | 38916 ft | 489 kts | 183° |
| 2026-05-04 20:34 | 12.32457 | -80.72927 | 38913 ft | 489 kts | 183° |
| 2026-05-04 20:34 | 12.25664 | -80.73216 | 38911 ft | 489 kts | 183° |
| 2026-05-04 20:35 | 12.18860 | -80.73506 | 38909 ft | 489 kts | 183° |
| 2026-05-04 20:35 | 12.12111 | -80.73793 | 38905 ft | 488 kts | 183° |
| 2026-05-04 20:36 | 12.05320 | -80.74081 | 38904 ft | 488 kts | 183° |
| 2026-05-04 20:36 | 11.98532 | -80.74369 | 38902 ft | 488 kts | 183° |
| 2026-05-04 20:37 | 11.91754 | -80.74657 | 38903 ft | 488 kts | 183° |
| 2026-05-04 20:37 | 11.84966 | -80.74945 | 38902 ft | 488 kts | 183° |
| 2026-05-04 20:38 | 11.78187 | -80.75232 | 38903 ft | 487 kts | 182° |
| 2026-05-04 20:38 | 11.71397 | -80.75520 | 38900 ft | 487 kts | 182° |
| 2026-05-04 20:39 | 11.64662 | -80.75805 | 38899 ft | 487 kts | 182° |
| 2026-05-04 20:39 | 11.57885 | -80.76092 | 38901 ft | 487 kts | 182° |
| 2026-05-04 20:40 | 11.51113 | -80.76378 | 38899 ft | 487 kts | 182° |
| 2026-05-04 20:40 | 11.44352 | -80.76664 | 38898 ft | 487 kts | 182° |
| 2026-05-04 20:41 | 11.37571 | -80.76951 | 38897 ft | 487 kts | 182° |
| 2026-05-04 20:41 | 11.31942 | -80.77189 | 38897 ft | 487 kts | 182° |
| 2026-05-04 20:42 | 11.25175 | -80.77474 | 38896 ft | 487 kts | 182° |
| 2026-05-04 20:42 | 11.18395 | -80.77761 | 38895 ft | 487 kts | 182° |
| 2026-05-04 20:43 | 11.11665 | -80.78045 | 38895 ft | 487 kts | 182° |
| 2026-05-04 20:43 | 11.04897 | -80.78330 | 38896 ft | 487 kts | 182° |
| 2026-05-04 20:44 | 10.97024 | -80.78662 | 38892 ft | 487 kts | 182° |
| 2026-05-04 20:44 | 10.91409 | -80.78898 | 38892 ft | 487 kts | 182° |
| 2026-05-04 20:45 | 10.84622 | -80.79184 | 38891 ft | 487 kts | 182° |
| 2026-05-04 20:45 | 10.77894 | -80.79467 | 38893 ft | 487 kts | 182° |
| 2026-05-04 20:46 | 10.71111 | -80.79753 | 38889 ft | 488 kts | 182° |
| 2026-05-04 20:46 | 10.64329 | -80.80038 | 38888 ft | 488 kts | 182° |
| 2026-05-04 20:47 | 10.57527 | -80.80324 | 38885 ft | 489 kts | 182° |
| 2026-05-04 20:47 | 10.50718 | -80.80610 | 38891 ft | 490 kts | 182° |
| 2026-05-04 20:48 | 10.43897 | -80.80897 | 38888 ft | 490 kts | 182° |
| 2026-05-04 20:48 | 10.37070 | -80.81183 | 38887 ft | 491 kts | 182° |
| 2026-05-04 20:49 | 10.30283 | -80.81468 | 38887 ft | 492 kts | 182° |
| 2026-05-04 20:49 | 10.23429 | -80.81755 | 38887 ft | 493 kts | 182° |
| 2026-05-04 20:50 | 10.16563 | -80.82043 | 38884 ft | 494 kts | 182° |
| 2026-05-04 20:50 | 10.09694 | -80.82331 | 38882 ft | 495 kts | 182° |
| 2026-05-04 20:51 | 10.02805 | -80.82620 | 38886 ft | 496 kts | 182° |
| 2026-05-04 20:51 | 9.95898 | -80.82909 | 38889 ft | 496 kts | 182° |
| 2026-05-04 20:52 | 9.89025 | -80.83197 | 38888 ft | 497 kts | 182° |
| 2026-05-04 20:52 | 9.82157 | -80.83484 | 38886 ft | 496 kts | 182° |
| 2026-05-04 20:53 | 9.75330 | -80.83770 | 38883 ft | 496 kts | 182° |
| 2026-05-04 20:53 | 9.68470 | -80.84057 | 38885 ft | 495 kts | 182° |
| 2026-05-04 20:54 | 9.61596 | -80.84344 | 38884 ft | 494 kts | 182° |
| 2026-05-04 20:54 | 9.54740 | -80.84642 | 38885 ft | 493 kts | 182° |
| 2026-05-04 20:55 | 9.47883 | -80.84972 | 38883 ft | 492 kts | 182° |
| 2026-05-04 20:55 | 9.41030 | -80.85306 | 38884 ft | 492 kts | 182° |
| 2026-05-04 20:56 | 9.34190 | -80.85635 | 38883 ft | 492 kts | 182° |
| 2026-05-04 20:56 | 9.27348 | -80.85961 | 38881 ft | 491 kts | 182° |
| 2026-05-04 20:57 | 9.20559 | -80.86283 | 38882 ft | 491 kts | 182° |
| 2026-05-04 20:57 | 9.13733 | -80.86608 | 38888 ft | 490 kts | 182° |
| 2026-05-04 20:58 | 9.06910 | -80.86932 | 38887 ft | 490 kts | 182° |
| 2026-05-04 20:58 | 9.00101 | -80.87255 | 38886 ft | 490 kts | 182° |
| 2026-05-04 20:59 | 8.93279 | -80.87579 | 38890 ft | 490 kts | 182° |
| 2026-05-04 20:59 | 8.86468 | -80.87902 | 38892 ft | 490 kts | 182° |
| 2026-05-04 21:00 | 8.79697 | -80.88224 | 38889 ft | 490 kts | 181° |
| 2026-05-04 21:00 | 8.72876 | -80.88548 | 38886 ft | 490 kts | 181° |
| 2026-05-04 21:01 | 8.66062 | -80.88870 | 38884 ft | 490 kts | 181° |
| 2026-05-04 21:01 | 8.59249 | -80.89194 | 38885 ft | 490 kts | 181° |
| 2026-05-04 21:02 | 8.52454 | -80.89516 | 38877 ft | 491 kts | 181° |
| 2026-05-04 21:02 | 8.45630 | -80.89839 | 38878 ft | 491 kts | 181° |
| 2026-05-04 21:03 | 8.38798 | -80.90162 | 38866 ft | 491 kts | 181° |
| 2026-05-04 21:03 | 8.31965 | -80.90485 | 38857 ft | 491 kts | 181° |
| 2026-05-04 21:04 | 8.25131 | -80.90808 | 38854 ft | 492 kts | 181° |
| 2026-05-04 21:04 | 8.18281 | -80.91132 | 38843 ft | 492 kts | 181° |
| 2026-05-04 21:05 | 8.11468 | -80.91454 | 38842 ft | 493 kts | 181° |
| 2026-05-04 21:05 | 8.04602 | -80.91779 | 38840 ft | 493 kts | 181° |
| 2026-05-04 21:06 | 7.97739 | -80.92103 | 38838 ft | 493 kts | 182° |
| 2026-05-04 21:06 | 7.90873 | -80.92427 | 38837 ft | 493 kts | 182° |
| 2026-05-04 21:07 | 7.84053 | -80.92750 | 38842 ft | 494 kts | 182° |
| 2026-05-04 21:07 | 7.77184 | -80.93074 | 38840 ft | 494 kts | 182° |
| 2026-05-04 21:08 | 7.70297 | -80.93400 | 38843 ft | 495 kts | 181° |
| 2026-05-04 21:08 | 7.63416 | -80.93724 | 38841 ft | 495 kts | 181° |
| 2026-05-04 21:09 | 7.56528 | -80.94048 | 38844 ft | 496 kts | 181° |
| 2026-05-04 21:09 | 7.49633 | -80.94373 | 38843 ft | 496 kts | 181° |
| 2026-05-04 21:10 | 7.42727 | -80.94699 | 38843 ft | 497 kts | 181° |
| 2026-05-04 21:10 | 7.35801 | -80.95025 | 38844 ft | 498 kts | 181° |
| 2026-05-04 21:11 | 7.28861 | -80.95353 | 38843 ft | 500 kts | 181° |
| 2026-05-04 21:11 | 7.21940 | -80.95678 | 38841 ft | 502 kts | 181° |
| 2026-05-04 21:12 | 7.14957 | -80.96005 | 38841 ft | 503 kts | 181° |
| 2026-05-04 21:12 | 7.07943 | -80.96335 | 38838 ft | 505 kts | 181° |
| 2026-05-04 21:13 | 7.00910 | -80.96666 | 38839 ft | 505 kts | 181° |
| 2026-05-04 21:13 | 6.93887 | -80.96997 | 38845 ft | 505 kts | 181° |
| 2026-05-04 21:14 | 6.86864 | -80.97327 | 38841 ft | 504 kts | 181° |
| 2026-05-04 21:14 | 6.79887 | -80.97655 | 38843 ft | 504 kts | 181° |
| 2026-05-04 21:15 | 6.72889 | -80.97984 | 38846 ft | 504 kts | 181° |
| 2026-05-04 21:15 | 6.65871 | -80.98314 | 38845 ft | 504 kts | 181° |
| 2026-05-04 21:16 | 6.58887 | -80.98642 | 38843 ft | 503 kts | 181° |
| 2026-05-04 21:16 | 6.51865 | -80.98971 | 38842 ft | 502 kts | 181° |
| 2026-05-04 21:17 | 6.44884 | -80.99299 | 38843 ft | 503 kts | 181° |
| 2026-05-04 21:17 | 6.37935 | -80.99625 | 38845 ft | 503 kts | 181° |
| 2026-05-04 21:18 | 6.30938 | -80.99953 | 38845 ft | 502 kts | 181° |
| 2026-05-04 21:18 | 6.23956 | -81.00281 | 38847 ft | 501 kts | 181° |
| 2026-05-04 21:19 | 6.16988 | -81.00607 | 38848 ft | 501 kts | 181° |
| 2026-05-04 21:19 | 6.10026 | -81.00934 | 38847 ft | 501 kts | 181° |
| 2026-05-04 21:20 | 6.03047 | -81.01261 | 38854 ft | 501 kts | 181° |
| 2026-05-04 21:20 | 5.96085 | -81.01587 | 38849 ft | 501 kts | 181° |
| 2026-05-04 21:21 | 5.89157 | -81.01912 | 38851 ft | 501 kts | 181° |
| 2026-05-04 21:21 | 5.82189 | -81.02238 | 38853 ft | 501 kts | 181° |
| 2026-05-04 21:22 | 5.75226 | -81.02564 | 38849 ft | 501 kts | 181° |
| 2026-05-04 21:22 | 5.68264 | -81.02890 | 38850 ft | 501 kts | 181° |
| 2026-05-04 21:23 | 5.61286 | -81.03217 | 38850 ft | 502 kts | 181° |
| 2026-05-04 21:23 | 5.54290 | -81.03544 | 38847 ft | 502 kts | 181° |
| 2026-05-04 21:24 | 5.47316 | -81.03870 | 38854 ft | 502 kts | 181° |
| 2026-05-04 21:24 | 5.40313 | -81.04198 | 38856 ft | 503 kts | 181° |
| 2026-05-04 21:25 | 5.33373 | -81.04522 | 38854 ft | 503 kts | 181° |
| 2026-05-04 21:25 | 5.26375 | -81.04849 | 38859 ft | 503 kts | 181° |
| 2026-05-04 21:26 | 5.19379 | -81.05176 | 38855 ft | 504 kts | 181° |
| 2026-05-04 21:26 | 5.12363 | -81.05503 | 38858 ft | 504 kts | 181° |
| 2026-05-04 21:27 | 5.05346 | -81.05831 | 38853 ft | 504 kts | 181° |
| 2026-05-04 21:27 | 4.98358 | -81.06157 | 38858 ft | 505 kts | 181° |
| 2026-05-04 21:28 | 4.91343 | -81.06484 | 38859 ft | 505 kts | 182° |
| 2026-05-04 21:28 | 4.84324 | -81.06812 | 38856 ft | 505 kts | 182° |
| 2026-05-04 21:29 | 4.77299 | -81.07140 | 38856 ft | 505 kts | 182° |
| 2026-05-04 21:29 | 4.70272 | -81.07467 | 38855 ft | 505 kts | 182° |
| 2026-05-04 21:30 | 4.64429 | -81.07740 | 38855 ft | 505 kts | 182° |
| 2026-05-04 21:30 | 4.57389 | -81.08069 | 38859 ft | 505 kts | 182° |
| 2026-05-04 21:31 | 4.46855 | -81.08555 | 38858 ft | 505 kts | 182° |
| 2026-05-04 21:32 | 4.39839 | -81.08854 | 38855 ft | 504 kts | 182° |
| 2026-05-04 21:32 | 4.32831 | -81.09150 | 38857 ft | 503 kts | 182° |
| 2026-05-04 21:33 | 4.25875 | -81.09448 | 38856 ft | 503 kts | 182° |
| 2026-05-04 21:33 | 4.18891 | -81.09749 | 38857 ft | 502 kts | 182° |
| 2026-05-04 21:34 | 4.11917 | -81.10050 | 38853 ft | 502 kts | 182° |
| 2026-05-04 21:34 | 4.04945 | -81.10350 | 38854 ft | 502 kts | 182° |
| 2026-05-04 21:35 | 3.97968 | -81.10651 | 38856 ft | 501 kts | 182° |
| 2026-05-04 21:35 | 3.90997 | -81.10952 | 38853 ft | 501 kts | 182° |
| 2026-05-04 21:36 | 3.84033 | -81.11252 | 38854 ft | 501 kts | 182° |
| 2026-05-04 21:36 | 3.77051 | -81.11552 | 38860 ft | 501 kts | 182° |
| 2026-05-04 21:37 | 3.70091 | -81.11852 | 38852 ft | 501 kts | 182° |
| 2026-05-04 21:37 | 3.63132 | -81.12152 | 38860 ft | 501 kts | 182° |
| 2026-05-04 21:38 | 3.56168 | -81.12452 | 38853 ft | 501 kts | 182° |
| 2026-05-04 21:38 | 3.49235 | -81.12750 | 38860 ft | 501 kts | 181° |
| 2026-05-04 21:39 | 3.42263 | -81.13050 | 38860 ft | 501 kts | 181° |
| 2026-05-04 21:39 | 3.35291 | -81.13350 | 38852 ft | 501 kts | 181° |
| 2026-05-04 21:40 | 3.28323 | -81.13649 | 38857 ft | 502 kts | 181° |
| 2026-05-04 21:40 | 3.21343 | -81.13950 | 38864 ft | 502 kts | 181° |
| 2026-05-04 21:41 | 3.14352 | -81.14251 | 38859 ft | 503 kts | 181° |
| 2026-05-04 21:41 | 3.07357 | -81.14551 | 38860 ft | 503 kts | 181° |
| 2026-05-04 21:42 | 3.00351 | -81.14852 | 38859 ft | 504 kts | 181° |
| 2026-05-04 21:42 | 2.93337 | -81.15154 | 38860 ft | 504 kts | 181° |
| 2026-05-04 21:43 | 2.86367 | -81.15453 | 38862 ft | 505 kts | 181° |
| 2026-05-04 21:43 | 2.79340 | -81.15755 | 38860 ft | 505 kts | 181° |
| 2026-05-04 21:44 | 2.72309 | -81.16058 | 38863 ft | 505 kts | 181° |
| 2026-05-04 21:44 | 2.65279 | -81.16361 | 38861 ft | 506 kts | 181° |
| 2026-05-04 21:45 | 2.58245 | -81.16663 | 38866 ft | 506 kts | 181° |
| 2026-05-04 21:45 | 2.51208 | -81.16966 | 38866 ft | 506 kts | 181° |
| 2026-05-04 21:46 | 2.44160 | -81.17268 | 38864 ft | 506 kts | 181° |
| 2026-05-04 21:46 | 2.37159 | -81.17569 | 38865 ft | 506 kts | 181° |
| 2026-05-04 21:47 | 2.30119 | -81.17871 | 38870 ft | 506 kts | 181° |
| 2026-05-04 21:47 | 2.23085 | -81.18173 | 38863 ft | 506 kts | 181° |
| 2026-05-04 21:48 | 2.16043 | -81.18476 | 38862 ft | 506 kts | 181° |
| 2026-05-04 21:48 | 2.09000 | -81.18778 | 38865 ft | 506 kts | 181° |
| 2026-05-04 21:49 | 2.01956 | -81.19081 | 38874 ft | 506 kts | 181° |
| 2026-05-04 21:49 | 1.94921 | -81.19382 | 38866 ft | 506 kts | 181° |
| 2026-05-04 21:50 | 1.87883 | -81.19684 | 38866 ft | 506 kts | 181° |
| 2026-05-04 21:50 | 1.80852 | -81.19986 | 38867 ft | 506 kts | 181° |
| 2026-05-04 21:51 | 1.73846 | -81.20287 | 38866 ft | 505 kts | 181° |
| 2026-05-04 21:51 | 1.66818 | -81.20588 | 38870 ft | 505 kts | 181° |
| 2026-05-04 21:52 | 1.59797 | -81.20890 | 38871 ft | 505 kts | 181° |
| 2026-05-04 21:52 | 1.52774 | -81.21191 | 38875 ft | 505 kts | 181° |
| 2026-05-04 21:53 | 1.45780 | -81.21492 | 38870 ft | 505 kts | 181° |
| 2026-05-04 21:53 | 1.38750 | -81.21815 | 38871 ft | 506 kts | 182° |
| 2026-05-04 21:54 | 1.31726 | -81.22345 | 38867 ft | 506 kts | 184° |
| 2026-05-04 21:54 | 1.24709 | -81.22933 | 38874 ft | 506 kts | 184° |
| 2026-05-04 21:55 | 1.17684 | -81.23493 | 38874 ft | 506 kts | 183° |
| 2026-05-04 21:55 | 1.10661 | -81.24031 | 38870 ft | 507 kts | 183° |
| 2026-05-04 21:56 | 1.03626 | -81.24565 | 38875 ft | 507 kts | 183° |
| 2026-05-04 21:56 | 0.96632 | -81.25095 | 38871 ft | 508 kts | 183° |
| 2026-05-04 21:57 | 0.89577 | -81.25632 | 38868 ft | 508 kts | 183° |
| 2026-05-04 21:57 | 0.82520 | -81.26168 | 38869 ft | 508 kts | 183° |
| 2026-05-04 21:58 | 0.75458 | -81.26706 | 38871 ft | 509 kts | 183° |
| 2026-05-04 21:58 | 0.68396 | -81.27243 | 38873 ft | 509 kts | 182° |
| 2026-05-04 21:59 | 0.61333 | -81.27780 | 38871 ft | 509 kts | 182° |
| 2026-05-04 21:59 | 0.54310 | -81.28315 | 38876 ft | 509 kts | 182° |
| 2026-05-04 22:00 | 0.47230 | -81.28853 | 38875 ft | 510 kts | 182° |
| 2026-05-04 22:00 | 0.40151 | -81.29392 | 38878 ft | 510 kts | 182° |
| 2026-05-04 22:01 | 0.33070 | -81.29930 | 38873 ft | 510 kts | 182° |
| 2026-05-04 22:01 | 0.25979 | -81.30469 | 38877 ft | 510 kts | 182° |
| 2026-05-04 22:02 | 0.18906 | -81.31007 | 38873 ft | 510 kts | 182° |
| 2026-05-04 22:02 | 0.11866 | -81.31543 | 38879 ft | 510 kts | 182° |
| 2026-05-04 22:03 | 0.04790 | -81.32081 | 38874 ft | 510 kts | 182° |
| 2026-05-04 22:03 | -0.02283 | -81.32619 | 38877 ft | 510 kts | 182° |
| 2026-05-04 22:04 | -0.09363 | -81.33157 | 38879 ft | 509 kts | 182° |
| 2026-05-04 22:04 | -0.16386 | -81.33691 | 38877 ft | 509 kts | 182° |
| 2026-05-04 22:05 | -0.23454 | -81.34229 | 38875 ft | 509 kts | 183° |
| 2026-05-04 22:05 | -0.30522 | -81.34766 | 38879 ft | 508 kts | 183° |
| 2026-05-04 22:06 | -0.37579 | -81.35303 | 38877 ft | 508 kts | 183° |
| 2026-05-04 22:06 | -0.44634 | -81.35840 | 38875 ft | 508 kts | 183° |
| 2026-05-04 22:07 | -0.51690 | -81.36376 | 38874 ft | 508 kts | 183° |
| 2026-05-04 22:07 | -0.58700 | -81.36910 | 38879 ft | 508 kts | 183° |
| 2026-05-04 22:08 | -0.65743 | -81.37445 | 38879 ft | 508 kts | 183° |
| 2026-05-04 22:08 | -0.72791 | -81.37981 | 38882 ft | 508 kts | 183° |
| 2026-05-04 22:09 | -0.79837 | -81.38517 | 38881 ft | 508 kts | 183° |
| 2026-05-04 22:09 | -0.86885 | -81.39053 | 38881 ft | 508 kts | 183° |
| 2026-05-04 22:10 | -0.93940 | -81.39589 | 38881 ft | 508 kts | 183° |
| 2026-05-04 22:10 | -1.00979 | -81.40124 | 38878 ft | 508 kts | 183° |
| 2026-05-04 22:11 | -1.08029 | -81.40661 | 38879 ft | 508 kts | 183° |
| 2026-05-04 22:11 | -1.15078 | -81.41197 | 38880 ft | 507 kts | 183° |
| 2026-05-04 22:12 | -1.22115 | -81.41732 | 38879 ft | 507 kts | 183° |
| 2026-05-04 22:12 | -1.29159 | -81.42268 | 38883 ft | 507 kts | 183° |
| 2026-05-04 22:13 | -1.36156 | -81.42801 | 38884 ft | 507 kts | 183° |
| 2026-05-04 22:13 | -1.43203 | -81.43338 | 38883 ft | 507 kts | 183° |
| 2026-05-04 22:14 | -1.50248 | -81.43873 | 38886 ft | 508 kts | 183° |
| 2026-05-04 22:14 | -1.57290 | -81.44409 | 38885 ft | 508 kts | 183° |
| 2026-05-04 22:15 | -1.63152 | -81.44856 | 38885 ft | 508 kts | 183° |
| 2026-05-04 22:15 | -1.70205 | -81.45393 | 38884 ft | 508 kts | 183° |
| 2026-05-04 22:16 | -1.77260 | -81.45930 | 38886 ft | 508 kts | 183° |
| 2026-05-04 22:16 | -1.84322 | -81.46468 | 38883 ft | 509 kts | 183° |
| 2026-05-04 22:17 | -1.91347 | -81.47003 | 38883 ft | 509 kts | 183° |
| 2026-05-04 22:17 | -1.98405 | -81.47540 | 38884 ft | 509 kts | 183° |
| 2026-05-04 22:18 | -2.05480 | -81.48078 | 38882 ft | 509 kts | 183° |
| 2026-05-04 22:18 | -2.12516 | -81.48614 | 38882 ft | 509 kts | 183° |
| 2026-05-04 22:19 | -2.19586 | -81.49153 | 38883 ft | 509 kts | 183° |
| 2026-05-04 22:19 | -2.26649 | -81.49691 | 38883 ft | 509 kts | 183° |
| 2026-05-04 22:20 | -2.33723 | -81.50230 | 38881 ft | 509 kts | 183° |
| 2026-05-04 22:20 | -2.40794 | -81.50768 | 38883 ft | 509 kts | 184° |
| 2026-05-04 22:21 | -2.47868 | -81.51308 | 38886 ft | 509 kts | 184° |
| 2026-05-04 22:21 | -2.54932 | -81.51846 | 38887 ft | 509 kts | 184° |
| 2026-05-04 22:22 | -2.61969 | -81.52382 | 38885 ft | 509 kts | 184° |
| 2026-05-04 22:22 | -2.69042 | -81.52921 | 38883 ft | 509 kts | 184° |
| 2026-05-04 22:23 | -2.76122 | -81.53461 | 38884 ft | 509 kts | 184° |
| 2026-05-04 22:23 | -2.83188 | -81.54000 | 38887 ft | 509 kts | 184° |
| 2026-05-04 22:24 | -2.90208 | -81.54535 | 38885 ft | 508 kts | 184° |
| 2026-05-04 22:24 | -2.97275 | -81.55074 | 38886 ft | 508 kts | 184° |
| 2026-05-04 22:25 | -3.04329 | -81.55612 | 38885 ft | 508 kts | 184° |
| 2026-05-04 22:25 | -3.11357 | -81.56148 | 38886 ft | 508 kts | 184° |
| 2026-05-04 22:26 | -3.18417 | -81.56687 | 38887 ft | 508 kts | 184° |
| 2026-05-04 22:26 | -3.25492 | -81.57226 | 38888 ft | 509 kts | 184° |
| 2026-05-04 22:27 | -3.32550 | -81.57765 | 38889 ft | 509 kts | 184° |
| 2026-05-04 22:27 | -3.39623 | -81.57972 | 38894 ft | 508 kts | 174° |
| 2026-05-04 22:28 | -3.46496 | -81.56569 | 38890 ft | 506 kts | 165° |
| 2026-05-04 22:28 | -3.53294 | -81.54687 | 38889 ft | 507 kts | 163° |
| 2026-05-04 22:29 | -3.60072 | -81.52744 | 38892 ft | 507 kts | 163° |
| 2026-05-04 22:29 | -3.66862 | -81.50818 | 38886 ft | 507 kts | 163° |
| 2026-05-04 22:30 | -3.73666 | -81.48908 | 38887 ft | 507 kts | 163° |
| 2026-05-04 22:30 | -3.80467 | -81.47004 | 38882 ft | 510 kts | 163° |
| 2026-05-04 22:31 | -3.87292 | -81.45092 | 38884 ft | 514 kts | 164° |
| 2026-05-04 22:31 | -3.94203 | -81.43155 | 38887 ft | 516 kts | 164° |
| 2026-05-04 22:32 | -4.01115 | -81.41218 | 38889 ft | 516 kts | 164° |
| 2026-05-04 22:32 | -4.08031 | -81.39279 | 38888 ft | 516 kts | 164° |
| 2026-05-04 22:33 | -4.14957 | -81.37337 | 38891 ft | 516 kts | 164° |
| 2026-05-04 22:33 | -4.21876 | -81.35396 | 38891 ft | 517 kts | 164° |
| 2026-05-04 22:34 | -4.28763 | -81.33464 | 38889 ft | 517 kts | 164° |
| 2026-05-04 22:34 | -4.35701 | -81.31517 | 38883 ft | 517 kts | 164° |
| 2026-05-04 22:35 | -4.42646 | -81.29569 | 38883 ft | 518 kts | 164° |
| 2026-05-04 22:35 | -4.49587 | -81.27621 | 38883 ft | 518 kts | 164° |
| 2026-05-04 22:36 | -4.56529 | -81.25631 | 38883 ft | 518 kts | 160° |
| 2026-05-04 22:36 | -4.63093 | -81.22745 | 38881 ft | 518 kts | 153° |
| 2026-05-04 22:37 | -4.69559 | -81.19535 | 38887 ft | 518 kts | 153° |
| 2026-05-04 22:37 | -4.76001 | -81.16280 | 38885 ft | 519 kts | 153° |
| 2026-05-04 22:38 | -4.82456 | -81.13031 | 38889 ft | 519 kts | 153° |
| 2026-05-04 22:38 | -4.88931 | -81.09786 | 38891 ft | 519 kts | 153° |
| 2026-05-04 22:39 | -4.95400 | -81.06548 | 38894 ft | 519 kts | 153° |
| 2026-05-04 22:39 | -5.01830 | -81.03329 | 38894 ft | 520 kts | 153° |
| 2026-05-04 22:40 | -5.08307 | -81.00085 | 38891 ft | 520 kts | 153° |
| 2026-05-04 22:40 | -5.14790 | -80.96837 | 38896 ft | 520 kts | 153° |
| 2026-05-04 22:41 | -5.21268 | -80.93613 | 38899 ft | 520 kts | 153° |
| 2026-05-04 22:41 | -5.27714 | -80.90410 | 38897 ft | 520 kts | 153° |
| 2026-05-04 22:42 | -5.34205 | -80.87183 | 38893 ft | 520 kts | 153° |
| 2026-05-04 22:42 | -5.40699 | -80.83952 | 38900 ft | 521 kts | 153° |
| 2026-05-04 22:43 | -5.47198 | -80.80718 | 38901 ft | 521 kts | 153° |
| 2026-05-04 22:43 | -5.53697 | -80.77483 | 38901 ft | 521 kts | 153° |
| 2026-05-04 22:44 | -5.60203 | -80.74244 | 38898 ft | 522 kts | 153° |
| 2026-05-04 22:44 | -5.66714 | -80.71001 | 38907 ft | 522 kts | 153° |
| 2026-05-04 22:45 | -5.73211 | -80.67765 | 38905 ft | 522 kts | 153° |
| 2026-05-04 22:45 | -5.82942 | -80.62916 | 38908 ft | 522 kts | 153° |
| 2026-05-04 22:46 | -5.89452 | -80.59671 | 38906 ft | 522 kts | 153° |
| 2026-05-04 22:46 | -5.95965 | -80.56423 | 38912 ft | 522 kts | 153° |
| 2026-05-04 22:47 | -6.02433 | -80.53198 | 38911 ft | 522 kts | 153° |
| 2026-05-04 22:47 | -6.08932 | -80.49956 | 38907 ft | 521 kts | 153° |
| 2026-05-04 22:48 | -6.15440 | -80.46708 | 38912 ft | 521 kts | 153° |
| 2026-05-04 22:48 | -6.21942 | -80.43463 | 38915 ft | 521 kts | 153° |
| 2026-05-04 22:49 | -6.28450 | -80.40214 | 38918 ft | 521 kts | 153° |
| 2026-05-04 22:49 | -6.34915 | -80.36985 | 38919 ft | 521 kts | 153° |
| 2026-05-04 22:50 | -6.41408 | -80.33741 | 38916 ft | 521 kts | 153° |
| 2026-05-04 22:50 | -6.47896 | -80.30500 | 38917 ft | 520 kts | 153° |
| 2026-05-04 22:51 | -6.54385 | -80.27256 | 38911 ft | 520 kts | 153° |
| 2026-05-04 22:51 | -6.60873 | -80.24013 | 38918 ft | 520 kts | 153° |
| 2026-05-04 22:52 | -6.67370 | -80.20763 | 38919 ft | 521 kts | 153° |
| 2026-05-04 22:52 | -6.73821 | -80.17536 | 38916 ft | 521 kts | 153° |
| 2026-05-04 22:53 | -6.80313 | -80.14287 | 38912 ft | 521 kts | 153° |
| 2026-05-04 22:53 | -6.86814 | -80.11033 | 38916 ft | 522 kts | 153° |
| 2026-05-04 22:54 | -6.93329 | -80.07769 | 38918 ft | 522 kts | 153° |
| 2026-05-04 22:54 | -6.99830 | -80.04502 | 38925 ft | 523 kts | 153° |
| 2026-05-04 22:55 | -7.06339 | -80.01231 | 38927 ft | 523 kts | 153° |
| 2026-05-04 22:55 | -7.12848 | -79.97961 | 38925 ft | 523 kts | 153° |
| 2026-05-04 22:56 | -7.19367 | -79.94685 | 38922 ft | 523 kts | 153° |
| 2026-05-04 22:56 | -7.25883 | -79.91410 | 38924 ft | 523 kts | 153° |
| 2026-05-04 22:57 | -7.32362 | -79.88153 | 38922 ft | 523 kts | 153° |
| 2026-05-04 22:57 | -7.38873 | -79.84878 | 38923 ft | 523 kts | 153° |
| 2026-05-04 22:58 | -7.45393 | -79.81597 | 38925 ft | 523 kts | 153° |
| 2026-05-04 22:58 | -7.51870 | -79.78340 | 38913 ft | 511 kts | 152° |
| 2026-05-04 22:59 | -7.55021 | -79.76755 | 38918 ft | 500 kts | 152° |
| 2026-05-04 22:59 | -7.58117 | -79.75195 | 38921 ft | 498 kts | 152° |
| 2026-05-04 22:59 | -7.64328 | -79.72063 | 38925 ft | 500 kts | 152° |
| 2026-05-04 23:00 | -7.70518 | -79.68943 | 38922 ft | 500 kts | 152° |
| 2026-05-04 23:00 | -7.76743 | -79.65805 | 38923 ft | 500 kts | 152° |
| 2026-05-04 23:01 | -7.82968 | -79.62667 | 38921 ft | 500 kts | 152° |
| 2026-05-04 23:01 | -7.89198 | -79.59525 | 38918 ft | 500 kts | 152° |
| 2026-05-04 23:02 | -7.95429 | -79.56382 | 38919 ft | 500 kts | 152° |
| 2026-05-04 23:02 | -8.01656 | -79.53239 | 38923 ft | 500 kts | 152° |
| 2026-05-04 23:03 | -8.06838 | -79.50624 | 38920 ft | 500 kts | 152° |
| 2026-05-04 23:03 | -8.13063 | -79.47479 | 38920 ft | 501 kts | 152° |
| 2026-05-04 23:04 | -8.19303 | -79.44327 | 38920 ft | 501 kts | 152° |
| 2026-05-04 23:04 | -8.25534 | -79.41180 | 38920 ft | 501 kts | 152° |
| 2026-05-04 23:05 | -8.31738 | -79.38046 | 38916 ft | 501 kts | 152° |
| 2026-05-04 23:05 | -8.37987 | -79.34884 | 38921 ft | 501 kts | 152° |
| 2026-05-04 23:06 | -8.44222 | -79.31730 | 38921 ft | 501 kts | 152° |
| 2026-05-04 23:06 | -8.50457 | -79.28574 | 38923 ft | 501 kts | 152° |
| 2026-05-04 23:07 | -8.56698 | -79.25416 | 38928 ft | 501 kts | 152° |
| 2026-05-04 23:07 | -8.62935 | -79.22258 | 38927 ft | 501 kts | 152° |
| 2026-05-04 23:08 | -8.69142 | -79.19114 | 38930 ft | 501 kts | 152° |
| 2026-05-04 23:08 | -8.75380 | -79.15951 | 38932 ft | 501 kts | 152° |
| 2026-05-04 23:09 | -8.81624 | -79.12785 | 38932 ft | 502 kts | 152° |
| 2026-05-04 23:09 | -8.87866 | -79.09619 | 38941 ft | 502 kts | 152° |
| 2026-05-04 23:10 | -8.94120 | -79.06446 | 38944 ft | 502 kts | 152° |
| 2026-05-04 23:10 | -9.00341 | -79.03290 | 38945 ft | 502 kts | 152° |
| 2026-05-04 23:11 | -9.06596 | -79.00116 | 38945 ft | 503 kts | 152° |
| 2026-05-04 23:11 | -9.12855 | -78.96934 | 38941 ft | 503 kts | 152° |
| 2026-05-04 23:12 | -9.19109 | -78.93756 | 38939 ft | 503 kts | 152° |
| 2026-05-04 23:12 | -9.25372 | -78.90572 | 38939 ft | 504 kts | 152° |
| 2026-05-04 23:13 | -9.31635 | -78.87386 | 38939 ft | 504 kts | 152° |
| 2026-05-04 23:13 | -9.37910 | -78.84196 | 38939 ft | 504 kts | 152° |
| 2026-05-04 23:14 | -9.44139 | -78.81026 | 38939 ft | 504 kts | 152° |
| 2026-05-04 23:14 | -9.50426 | -78.77823 | 38942 ft | 505 kts | 152° |
| 2026-05-04 23:15 | -9.56705 | -78.74624 | 38944 ft | 505 kts | 152° |
| 2026-05-04 23:15 | -9.62995 | -78.71419 | 38948 ft | 506 kts | 152° |
| 2026-05-04 23:16 | -9.69289 | -78.68209 | 38964 ft | 506 kts | 152° |
| 2026-05-04 23:16 | -9.75602 | -78.65105 | 38975 ft | 507 kts | 154° |
| 2026-05-04 23:17 | -9.82043 | -78.62161 | 38982 ft | 507 kts | 155° |
| 2026-05-04 23:17 | -9.88501 | -78.59210 | 38989 ft | 508 kts | 155° |
| 2026-05-04 23:18 | -9.94892 | -78.56253 | 38984 ft | 508 kts | 154° |
| 2026-05-04 23:18 | -10.01317 | -78.53260 | 38983 ft | 508 kts | 154° |
| 2026-05-04 23:19 | -10.07761 | -78.50253 | 38982 ft | 509 kts | 154° |
| 2026-05-04 23:19 | -10.14207 | -78.47246 | 38978 ft | 510 kts | 154° |
| 2026-05-04 23:20 | -10.20655 | -78.44238 | 38978 ft | 510 kts | 154° |
| 2026-05-04 23:20 | -10.27110 | -78.41224 | 38976 ft | 511 kts | 155° |
| 2026-05-04 23:21 | -10.33581 | -78.38204 | 38976 ft | 511 kts | 155° |
| 2026-05-04 23:21 | -10.40013 | -78.35200 | 38973 ft | 512 kts | 155° |
| 2026-05-04 23:22 | -10.46501 | -78.32169 | 38971 ft | 512 kts | 155° |
| 2026-05-04 23:22 | -10.52949 | -78.29155 | 38971 ft | 513 kts | 155° |
| 2026-05-04 23:23 | -10.59458 | -78.26110 | 38971 ft | 513 kts | 155° |
| 2026-05-04 23:23 | -10.65961 | -78.23067 | 38970 ft | 514 kts | 155° |
| 2026-05-04 23:24 | -10.72463 | -78.20023 | 38968 ft | 514 kts | 155° |
| 2026-05-04 23:24 | -10.78917 | -78.16999 | 38969 ft | 514 kts | 155° |
| 2026-05-04 23:25 | -10.85416 | -78.13954 | 38970 ft | 514 kts | 155° |
| 2026-05-04 23:25 | -10.91920 | -78.10904 | 38969 ft | 514 kts | 155° |
| 2026-05-04 23:26 | -10.98429 | -78.07851 | 38969 ft | 514 kts | 155° |
| 2026-05-04 23:26 | -11.04916 | -78.04807 | 38967 ft | 515 kts | 155° |
| 2026-05-04 23:27 | -11.11441 | -78.01741 | 38969 ft | 519 kts | 155° |
| 2026-05-04 23:27 | -11.18022 | -77.98651 | 38971 ft | 522 kts | 155° |
| 2026-05-04 23:28 | -11.24620 | -77.95551 | 38959 ft | 522 kts | 155° |
| 2026-05-04 23:28 | -11.31179 | -77.92467 | 38969 ft | 522 kts | 155° |
| 2026-05-04 23:29 | -11.37785 | -77.89359 | 38961 ft | 523 kts | 155° |
| 2026-05-04 23:29 | -11.44402 | -77.86244 | 38955 ft | 523 kts | 155° |
| 2026-05-04 23:30 | -11.51016 | -77.83129 | 38963 ft | 523 kts | 155° |
| 2026-05-04 23:30 | -11.57589 | -77.80032 | 38952 ft | 523 kts | 155° |
| 2026-05-04 23:31 | -11.64208 | -77.76912 | 38958 ft | 524 kts | 155° |
| 2026-05-04 23:31 | -11.70830 | -77.73791 | 38953 ft | 524 kts | 155° |
| 2026-05-04 23:32 | -11.77455 | -77.70664 | 38946 ft | 524 kts | 155° |
| 2026-05-04 23:32 | -11.84074 | -77.67535 | 38955 ft | 524 kts | 155° |
| 2026-05-04 23:33 | -11.90703 | -77.64402 | 38952 ft | 524 kts | 155° |
| 2026-05-04 23:33 | -11.97292 | -77.61287 | 38950 ft | 525 kts | 155° |
| 2026-05-04 23:34 | -12.03925 | -77.58150 | 38951 ft | 525 kts | 155° |
| 2026-05-04 23:34 | -12.10559 | -77.55010 | 38944 ft | 525 kts | 155° |
| 2026-05-04 23:35 | -12.17148 | -77.51890 | 38946 ft | 525 kts | 155° |
| 2026-05-04 23:35 | -12.23778 | -77.48749 | 38944 ft | 525 kts | 155° |
| 2026-05-04 23:36 | -12.30423 | -77.45599 | 38948 ft | 525 kts | 155° |
| 2026-05-04 23:36 | -12.37055 | -77.42453 | 38948 ft | 525 kts | 155° |
| 2026-05-04 23:37 | -12.43645 | -77.39326 | 38948 ft | 525 kts | 156° |
| 2026-05-04 23:37 | -12.50277 | -77.36176 | 38945 ft | 525 kts | 156° |
| 2026-05-04 23:38 | -12.56908 | -77.33026 | 38949 ft | 525 kts | 156° |
| 2026-05-04 23:38 | -12.63549 | -77.29869 | 38958 ft | 526 kts | 156° |
| 2026-05-04 23:39 | -12.70185 | -77.26712 | 38965 ft | 526 kts | 156° |
| 2026-05-04 23:39 | -12.76824 | -77.23552 | 38965 ft | 526 kts | 156° |
| 2026-05-04 23:40 | -12.83422 | -77.20410 | 38961 ft | 526 kts | 156° |
| 2026-05-04 23:40 | -12.90067 | -77.17244 | 38972 ft | 526 kts | 156° |
| 2026-05-04 23:41 | -12.96715 | -77.14074 | 38968 ft | 526 kts | 156° |
| 2026-05-04 23:41 | -13.03325 | -77.10921 | 38964 ft | 527 kts | 156° |
| 2026-05-04 23:42 | -13.09975 | -77.07747 | 38976 ft | 527 kts | 156° |
| 2026-05-04 23:42 | -13.16627 | -77.04570 | 38971 ft | 527 kts | 156° |
| 2026-05-04 23:43 | -13.23275 | -77.01392 | 38973 ft | 527 kts | 156° |
| 2026-05-04 23:43 | -13.29935 | -76.98208 | 38973 ft | 527 kts | 156° |
| 2026-05-04 23:44 | -13.36590 | -76.95024 | 38967 ft | 528 kts | 156° |
| 2026-05-04 23:44 | -13.43243 | -76.91838 | 38974 ft | 528 kts | 156° |
| 2026-05-04 23:45 | -13.49910 | -76.88643 | 38967 ft | 528 kts | 156° |
| 2026-05-04 23:45 | -13.56581 | -76.85446 | 38968 ft | 528 kts | 156° |
| 2026-05-04 23:46 | -13.63201 | -76.82270 | 38959 ft | 528 kts | 156° |
| 2026-05-04 23:46 | -13.69868 | -76.79070 | 38969 ft | 528 kts | 156° |
| 2026-05-04 23:47 | -13.76537 | -76.75867 | 38965 ft | 529 kts | 156° |
| 2026-05-04 23:47 | -13.83206 | -76.72662 | 38966 ft | 529 kts | 156° |
| 2026-05-04 23:48 | -13.89876 | -76.69455 | 38960 ft | 529 kts | 156° |
| 2026-05-04 23:48 | -13.96543 | -76.66247 | 38961 ft | 529 kts | 156° |
| 2026-05-04 23:49 | -14.02086 | -76.63578 | 38963 ft | 529 kts | 156° |
| 2026-05-04 23:49 | -14.09839 | -76.59843 | 38978 ft | 529 kts | 157° |
| 2026-05-04 23:50 | -14.16510 | -76.56626 | 38974 ft | 529 kts | 157° |
| 2026-05-04 23:50 | -14.22054 | -76.53952 | 38966 ft | 529 kts | 157° |
| 2026-05-04 23:51 | -14.30037 | -76.50691 | 39041 ft | 527 kts | 166° |
| 2026-05-04 23:51 | -14.35891 | -76.49006 | 39255 ft | 525 kts | 167° |
| 2026-05-04 23:52 | -14.39431 | -76.48039 | 39377 ft | 525 kts | 168° |
| 2026-05-04 23:52 | -14.42958 | -76.47090 | 39496 ft | 524 kts | 168° |
| 2026-05-04 23:52 | -14.46495 | -76.46141 | 39616 ft | 524 kts | 168° |
| 2026-05-04 23:52 | -14.50019 | -76.45193 | 39732 ft | 523 kts | 168° |
| 2026-05-04 23:53 | -14.53503 | -76.44251 | 39835 ft | 523 kts | 168° |
| 2026-05-04 23:53 | -14.57023 | -76.43296 | 39944 ft | 523 kts | 168° |
| 2026-05-04 23:53 | -14.60542 | -76.42339 | 40054 ft | 522 kts | 168° |
| 2026-05-04 23:53 | -14.64047 | -76.41384 | 40164 ft | 521 kts | 168° |
| 2026-05-04 23:54 | -14.67563 | -76.40425 | 40273 ft | 521 kts | 168° |
| 2026-05-04 23:54 | -14.71062 | -76.39471 | 40369 ft | 521 kts | 168° |
| 2026-05-04 23:54 | -14.74567 | -76.38514 | 40470 ft | 520 kts | 168° |
| 2026-05-04 23:54 | -14.78071 | -76.37558 | 40568 ft | 520 kts | 168° |
| 2026-05-04 23:55 | -14.81564 | -76.36604 | 40671 ft | 519 kts | 168° |
| 2026-05-04 23:55 | -14.85056 | -76.35651 | 40772 ft | 519 kts | 168° |
| 2026-05-04 23:55 | -14.92042 | -76.33743 | 40938 ft | 518 kts | 168° |
| 2026-05-04 23:56 | -14.95529 | -76.32790 | 40984 ft | 518 kts | 168° |
| 2026-05-04 23:56 | -15.02463 | -76.30894 | 40987 ft | 518 kts | 168° |
| 2026-05-04 23:57 | -15.09430 | -76.28988 | 40985 ft | 518 kts | 168° |
| 2026-05-04 23:57 | -15.16405 | -76.27078 | 40988 ft | 518 kts | 168° |
| 2026-05-04 23:58 | -15.23391 | -76.25164 | 40989 ft | 518 kts | 168° |
| 2026-05-04 23:58 | -15.30363 | -76.23253 | 40988 ft | 518 kts | 168° |
| 2026-05-04 23:59 | -15.37294 | -76.21351 | 40988 ft | 519 kts | 168° |
| 2026-05-04 23:59 | -15.44285 | -76.19432 | 40988 ft | 519 kts | 168° |
| 2026-05-05 00:00 | -15.51277 | -76.17511 | 40989 ft | 519 kts | 168° |
| 2026-05-05 00:00 | -15.58264 | -76.15590 | 40990 ft | 519 kts | 168° |
| 2026-05-05 00:01 | -15.65215 | -76.13677 | 40991 ft | 519 kts | 168° |
| 2026-05-05 00:01 | -15.72205 | -76.11753 | 40993 ft | 520 kts | 168° |
| 2026-05-05 00:02 | -15.79215 | -76.09822 | 40989 ft | 520 kts | 168° |
| 2026-05-05 00:02 | -15.86207 | -76.07894 | 40992 ft | 520 kts | 168° |
| 2026-05-05 00:03 | -15.93208 | -76.05962 | 40994 ft | 520 kts | 168° |
| 2026-05-05 00:03 | -16.00155 | -76.04044 | 40994 ft | 521 kts | 168° |
| 2026-05-05 00:04 | -16.07160 | -76.02108 | 40997 ft | 521 kts | 168° |
| 2026-05-05 00:04 | -16.14189 | -76.00165 | 40996 ft | 521 kts | 168° |
| 2026-05-05 00:05 | -16.21212 | -75.98221 | 40993 ft | 521 kts | 168° |
| 2026-05-05 00:05 | -16.28186 | -75.96290 | 40990 ft | 521 kts | 168° |
| 2026-05-05 00:06 | -16.35201 | -75.94346 | 40996 ft | 522 kts | 167° |
| 2026-05-05 00:06 | -16.42221 | -75.92399 | 40995 ft | 522 kts | 168° |
| 2026-05-05 00:07 | -16.49247 | -75.90449 | 40994 ft | 522 kts | 167° |
| 2026-05-05 00:07 | -16.56272 | -75.88497 | 40996 ft | 522 kts | 167° |
| 2026-05-05 00:08 | -16.63258 | -75.86556 | 40994 ft | 522 kts | 167° |
| 2026-05-05 00:08 | -16.70288 | -75.84600 | 40996 ft | 522 kts | 167° |
| 2026-05-05 00:09 | -16.77309 | -75.82645 | 40998 ft | 522 kts | 167° |
| 2026-05-05 00:09 | -16.84349 | -75.80684 | 40999 ft | 522 kts | 167° |
| 2026-05-05 00:10 | -16.91332 | -75.78737 | 40998 ft | 522 kts | 168° |
| 2026-05-05 00:10 | -16.98349 | -75.76779 | 41000 ft | 522 kts | 168° |
| 2026-05-05 00:11 | -17.05387 | -75.74814 | 41002 ft | 523 kts | 168° |
| 2026-05-05 00:11 | -17.12421 | -75.72848 | 41005 ft | 523 kts | 168° |
| 2026-05-05 00:12 | -17.19453 | -75.70882 | 41002 ft | 523 kts | 168° |
| 2026-05-05 00:12 | -17.26492 | -75.68911 | 41005 ft | 523 kts | 168° |
| 2026-05-05 00:13 | -17.33489 | -75.66951 | 41006 ft | 523 kts | 168° |
| 2026-05-05 00:13 | -17.40529 | -75.64978 | 41003 ft | 523 kts | 168° |
| 2026-05-05 00:14 | -17.47576 | -75.63000 | 41008 ft | 523 kts | 168° |
| 2026-05-05 00:14 | -17.54625 | -75.61021 | 41012 ft | 524 kts | 168° |
| 2026-05-05 00:15 | -17.61669 | -75.59042 | 41012 ft | 524 kts | 168° |
| 2026-05-05 00:15 | -17.68670 | -75.57073 | 41012 ft | 524 kts | 168° |
| 2026-05-05 00:16 | -17.75711 | -75.55091 | 41010 ft | 524 kts | 168° |
| 2026-05-05 00:16 | -17.82765 | -75.53104 | 41011 ft | 524 kts | 168° |
| 2026-05-05 00:17 | -17.89820 | -75.51114 | 41011 ft | 525 kts | 168° |
| 2026-05-05 00:17 | -17.96885 | -75.49121 | 41011 ft | 525 kts | 168° |
| 2026-05-05 00:18 | -18.03946 | -75.47127 | 41010 ft | 525 kts | 168° |
| 2026-05-05 00:18 | -18.10959 | -75.45145 | 41012 ft | 525 kts | 168° |
| 2026-05-05 00:19 | -18.18034 | -75.43144 | 41014 ft | 526 kts | 168° |
| 2026-05-05 00:19 | -18.25103 | -75.41142 | 41013 ft | 526 kts | 168° |
| 2026-05-05 00:20 | -18.32022 | -75.39180 | 41012 ft | 526 kts | 168° |
| 2026-05-05 00:20 | -18.39090 | -75.37156 | 41014 ft | 526 kts | 167° |
| 2026-05-05 00:21 | -18.46098 | -75.35044 | 41014 ft | 527 kts | 167° |
| 2026-05-05 00:21 | -18.53140 | -75.32901 | 41015 ft | 527 kts | 167° |
| 2026-05-05 00:22 | -18.60205 | -75.30766 | 41015 ft | 527 kts | 167° |
| 2026-05-05 00:22 | -18.67259 | -75.28642 | 41017 ft | 527 kts | 167° |
| 2026-05-05 00:23 | -18.74324 | -75.26515 | 41014 ft | 527 kts | 167° |
| 2026-05-05 00:23 | -18.80701 | -75.24592 | 41016 ft | 528 kts | 167° |
| 2026-05-05 00:24 | -18.87758 | -75.22463 | 41016 ft | 528 kts | 167° |
| 2026-05-05 00:24 | -18.94829 | -75.20328 | 41014 ft | 528 kts | 167° |
| 2026-05-05 00:25 | -19.01906 | -75.18189 | 41017 ft | 528 kts | 167° |
| 2026-05-05 00:25 | -19.08975 | -75.16050 | 41014 ft | 529 kts | 167° |
| 2026-05-05 00:26 | -19.16055 | -75.13906 | 41008 ft | 529 kts | 167° |
| 2026-05-05 00:26 | -19.23132 | -75.11761 | 41017 ft | 529 kts | 167° |
| 2026-05-05 00:27 | -19.30224 | -75.09610 | 41015 ft | 530 kts | 167° |
| 2026-05-05 00:27 | -19.37321 | -75.07455 | 41016 ft | 530 kts | 167° |
| 2026-05-05 00:28 | -19.44383 | -75.05309 | 41016 ft | 530 kts | 167° |
| 2026-05-05 00:28 | -19.51475 | -75.03152 | 41017 ft | 531 kts | 167° |
| 2026-05-05 00:29 | -19.58586 | -75.00987 | 41015 ft | 531 kts | 167° |
| 2026-05-05 00:29 | -19.65693 | -74.98821 | 41019 ft | 531 kts | 167° |
| 2026-05-05 00:30 | -19.72760 | -74.96666 | 41014 ft | 532 kts | 167° |
| 2026-05-05 00:30 | -19.79889 | -74.94489 | 41014 ft | 532 kts | 167° |
| 2026-05-05 00:31 | -19.86980 | -74.92322 | 41014 ft | 532 kts | 167° |
| 2026-05-05 00:31 | -19.94104 | -74.90143 | 41017 ft | 532 kts | 167° |
| 2026-05-05 00:32 | -20.01238 | -74.87959 | 41015 ft | 533 kts | 167° |
| 2026-05-05 00:32 | -20.08363 | -74.85775 | 41016 ft | 533 kts | 167° |
| 2026-05-05 00:33 | -20.15499 | -74.83587 | 41015 ft | 533 kts | 167° |
| 2026-05-05 00:33 | -20.22633 | -74.81396 | 41022 ft | 534 kts | 167° |
| 2026-05-05 00:34 | -20.29766 | -74.79204 | 41020 ft | 534 kts | 168° |
| 2026-05-05 00:34 | -20.36916 | -74.77005 | 41023 ft | 534 kts | 168° |
| 2026-05-05 00:35 | -20.44019 | -74.74818 | 41022 ft | 535 kts | 168° |
| 2026-05-05 00:35 | -20.51163 | -74.72616 | 41012 ft | 535 kts | 168° |
| 2026-05-05 00:36 | -20.58337 | -74.70402 | 41024 ft | 535 kts | 168° |
| 2026-05-05 00:36 | -20.65475 | -74.68198 | 41029 ft | 535 kts | 168° |
| 2026-05-05 00:37 | -20.72633 | -74.65985 | 41017 ft | 535 kts | 168° |
| 2026-05-05 00:37 | -20.79795 | -74.63769 | 41022 ft | 535 kts | 168° |
| 2026-05-05 00:38 | -20.86912 | -74.61565 | 41023 ft | 536 kts | 168° |
| 2026-05-05 00:38 | -20.92862 | -74.59720 | 41023 ft | 536 kts | 168° |
| 2026-05-05 00:39 | -21.00044 | -74.57492 | 41019 ft | 536 kts | 168° |
| 2026-05-05 00:39 | -21.07200 | -74.55269 | 41020 ft | 536 kts | 168° |
| 2026-05-05 00:40 | -21.14402 | -74.53030 | 41023 ft | 536 kts | 168° |
| 2026-05-05 00:40 | -21.21576 | -74.50800 | 41023 ft | 537 kts | 168° |
| 2026-05-05 00:41 | -21.28710 | -74.48576 | 41023 ft | 537 kts | 168° |
| 2026-05-05 00:41 | -21.35887 | -74.46336 | 41021 ft | 537 kts | 168° |
| 2026-05-05 00:42 | -21.43078 | -74.44091 | 41022 ft | 538 kts | 168° |
| 2026-05-05 00:42 | -21.50265 | -74.41844 | 41025 ft | 538 kts | 168° |
| 2026-05-05 00:43 | -21.57448 | -74.39597 | 41025 ft | 538 kts | 168° |
| 2026-05-05 00:43 | -21.64593 | -74.37359 | 41024 ft | 538 kts | 168° |
| 2026-05-05 00:44 | -21.71797 | -74.35100 | 41024 ft | 538 kts | 168° |
| 2026-05-05 00:44 | -21.78988 | -74.32844 | 41025 ft | 538 kts | 168° |
| 2026-05-05 00:45 | -21.86191 | -74.30581 | 41025 ft | 538 kts | 168° |
| 2026-05-05 00:45 | -21.93337 | -74.28333 | 41026 ft | 539 kts | 168° |
| 2026-05-05 00:46 | -22.00527 | -74.26070 | 41025 ft | 539 kts | 168° |
| 2026-05-05 00:46 | -22.07730 | -74.23799 | 41028 ft | 539 kts | 168° |
| 2026-05-05 00:47 | -22.14938 | -74.21525 | 41030 ft | 539 kts | 169° |
| 2026-05-05 00:47 | -22.22131 | -74.19254 | 41025 ft | 539 kts | 169° |
| 2026-05-05 00:48 | -22.29335 | -74.16976 | 41024 ft | 539 kts | 169° |
| 2026-05-05 00:48 | -22.36542 | -74.14695 | 41030 ft | 540 kts | 169° |
| 2026-05-05 00:49 | -22.43760 | -74.12408 | 41016 ft | 540 kts | 169° |
| 2026-05-05 00:49 | -22.50923 | -74.10136 | 41030 ft | 540 kts | 169° |
| 2026-05-05 00:50 | -22.58135 | -74.07846 | 41029 ft | 540 kts | 169° |
| 2026-05-05 00:50 | -22.65352 | -74.05552 | 41027 ft | 540 kts | 169° |
| 2026-05-05 00:51 | -22.72582 | -74.03250 | 41021 ft | 541 kts | 169° |
| 2026-05-05 00:51 | -22.78151 | -74.01477 | 41022 ft | 541 kts | 169° |
| 2026-05-05 00:53 | -22.80987 | -74.00572 | 41029 ft | 541 kts | 169° |
| 2026-05-05 00:53 | -22.88214 | -73.98267 | 41029 ft | 541 kts | 169° |
| 2026-05-05 00:54 | -22.95437 | -73.95960 | 41031 ft | 541 kts | 169° |
| 2026-05-05 00:54 | -23.02623 | -73.93663 | 41029 ft | 541 kts | 169° |
| 2026-05-05 00:55 | -23.09852 | -73.91349 | 41031 ft | 541 kts | 169° |
| 2026-05-05 00:55 | -23.17088 | -73.89031 | 41030 ft | 541 kts | 169° |
| 2026-05-05 00:56 | -23.24316 | -73.86712 | 41032 ft | 542 kts | 169° |
| 2026-05-05 00:56 | -23.31493 | -73.84407 | 41031 ft | 542 kts | 169° |
| 2026-05-05 00:57 | -23.38739 | -73.82077 | 41034 ft | 542 kts | 169° |
| 2026-05-05 00:57 | -23.45980 | -73.79746 | 41034 ft | 542 kts | 169° |
| 2026-05-05 00:58 | -23.53223 | -73.77412 | 41031 ft | 542 kts | 169° |
| 2026-05-05 00:58 | -23.60465 | -73.75076 | 41027 ft | 542 kts | 169° |
| 2026-05-05 00:59 | -23.67672 | -73.72748 | 41026 ft | 542 kts | 170° |
| 2026-05-05 00:59 | -23.74907 | -73.70409 | 41032 ft | 542 kts | 170° |
| 2026-05-05 01:00 | -23.82169 | -73.68058 | 41037 ft | 542 kts | 170° |
| 2026-05-05 01:00 | -23.89360 | -73.65727 | 41031 ft | 542 kts | 170° |
| 2026-05-05 01:01 | -23.96577 | -73.63385 | 41031 ft | 542 kts | 170° |
| 2026-05-05 01:01 | -24.03808 | -73.61037 | 41028 ft | 542 kts | 170° |
| 2026-05-05 01:02 | -24.11074 | -73.58680 | 41030 ft | 542 kts | 170° |
| 2026-05-05 01:02 | -24.18306 | -73.56331 | 41034 ft | 542 kts | 170° |
| 2026-05-05 01:03 | -24.25501 | -73.53991 | 41032 ft | 542 kts | 170° |
| 2026-05-05 01:03 | -24.32740 | -73.51633 | 41034 ft | 542 kts | 170° |
| 2026-05-05 01:04 | -24.39992 | -73.49269 | 41038 ft | 542 kts | 170° |
| 2026-05-05 01:04 | -24.50850 | -73.45724 | 41036 ft | 542 kts | 170° |
| 2026-05-05 01:05 | -24.58042 | -73.43372 | 41037 ft | 542 kts | 171° |
| 2026-05-05 01:05 | -24.65282 | -73.41001 | 41036 ft | 542 kts | 171° |
| 2026-05-05 01:06 | -24.72517 | -73.38630 | 41036 ft | 542 kts | 171° |
| 2026-05-05 01:06 | -24.79744 | -73.36258 | 41034 ft | 542 kts | 171° |
| 2026-05-05 01:07 | -24.86926 | -73.33898 | 41037 ft | 541 kts | 171° |
| 2026-05-05 01:07 | -24.94146 | -73.31523 | 41034 ft | 541 kts | 171° |
| 2026-05-05 01:08 | -25.01362 | -73.29146 | 41036 ft | 541 kts | 171° |
| 2026-05-05 01:08 | -25.08582 | -73.26765 | 41034 ft | 541 kts | 171° |
| 2026-05-05 01:09 | -25.15799 | -73.24382 | 41035 ft | 541 kts | 171° |
| 2026-05-05 01:09 | -25.23022 | -73.21994 | 41039 ft | 541 kts | 171° |
| 2026-05-05 01:10 | -25.30236 | -73.19606 | 41039 ft | 541 kts | 171° |
| 2026-05-05 01:10 | -25.37448 | -73.17216 | 41037 ft | 541 kts | 171° |
| 2026-05-05 01:11 | -25.44613 | -73.14838 | 41039 ft | 541 kts | 171° |
| 2026-05-05 01:11 | -25.51829 | -73.12441 | 41039 ft | 541 kts | 171° |
| 2026-05-05 01:12 | -25.59047 | -73.10039 | 41037 ft | 541 kts | 171° |
| 2026-05-05 01:12 | -25.66260 | -73.07636 | 41025 ft | 541 kts | 172° |
| 2026-05-05 01:13 | -25.73477 | -73.05229 | 41035 ft | 541 kts | 172° |
| 2026-05-05 01:13 | -25.80693 | -73.02819 | 41039 ft | 541 kts | 172° |
| 2026-05-05 01:14 | -25.87857 | -73.00424 | 41041 ft | 541 kts | 172° |
| 2026-05-05 01:14 | -25.95069 | -72.98009 | 41039 ft | 541 kts | 172° |
| 2026-05-05 01:15 | -26.02285 | -72.95590 | 41038 ft | 541 kts | 172° |
| 2026-05-05 01:15 | -26.09502 | -72.93168 | 41037 ft | 541 kts | 172° |
| 2026-05-05 01:16 | -26.16667 | -72.90760 | 41039 ft | 541 kts | 172° |
| 2026-05-05 01:16 | -26.23884 | -72.88331 | 41039 ft | 541 kts | 172° |
| 2026-05-05 01:17 | -26.31103 | -72.85899 | 41037 ft | 541 kts | 172° |
| 2026-05-05 01:17 | -26.38265 | -72.83483 | 41036 ft | 541 kts | 172° |
| 2026-05-05 01:18 | -26.45476 | -72.81047 | 41037 ft | 540 kts | 172° |
| 2026-05-05 01:18 | -26.52682 | -72.78609 | 41037 ft | 540 kts | 173° |
| 2026-05-05 01:19 | -26.59829 | -72.76188 | 41038 ft | 540 kts | 173° |
| 2026-05-05 01:19 | -26.67026 | -72.73747 | 41036 ft | 540 kts | 173° |
| 2026-05-05 01:20 | -26.74220 | -72.71305 | 41037 ft | 540 kts | 173° |
| 2026-05-05 01:20 | -26.81423 | -72.68855 | 41041 ft | 540 kts | 173° |
| 2026-05-05 01:21 | -26.88613 | -72.66407 | 41036 ft | 540 kts | 173° |
| 2026-05-05 01:21 | -26.95763 | -72.63969 | 41042 ft | 540 kts | 173° |
| 2026-05-05 01:22 | -27.02964 | -72.61511 | 41033 ft | 539 kts | 173° |
| 2026-05-05 01:22 | -27.10113 | -72.59067 | 41036 ft | 539 kts | 173° |
| 2026-05-05 01:23 | -27.17291 | -72.56610 | 41038 ft | 539 kts | 173° |
| 2026-05-05 01:23 | -27.24474 | -72.54147 | 41035 ft | 539 kts | 173° |
| 2026-05-05 01:24 | -27.31659 | -72.51681 | 41040 ft | 539 kts | 173° |
| 2026-05-05 01:24 | -27.38830 | -72.49216 | 41036 ft | 539 kts | 173° |
| 2026-05-05 01:25 | -27.46013 | -72.46744 | 41037 ft | 539 kts | 173° |
| 2026-05-05 01:25 | -27.53130 | -72.44292 | 41039 ft | 538 kts | 173° |
| 2026-05-05 01:26 | -27.60302 | -72.41825 | 41040 ft | 538 kts | 173° |
| 2026-05-05 01:26 | -27.67465 | -72.39360 | 41038 ft | 538 kts | 173° |
| 2026-05-05 01:27 | -27.74628 | -72.36891 | 41038 ft | 538 kts | 173° |
| 2026-05-05 01:27 | -27.80584 | -72.34836 | 41035 ft | 538 kts | 173° |
| 2026-05-05 01:28 | -27.88914 | -72.31957 | 41038 ft | 538 kts | 173° |
| 2026-05-05 01:28 | -27.96072 | -72.29479 | 41038 ft | 538 kts | 172° |
| 2026-05-05 01:29 | -28.02026 | -72.27416 | 41037 ft | 538 kts | 172° |
| 2026-05-05 01:29 | -28.09178 | -72.24933 | 41036 ft | 537 kts | 172° |
| 2026-05-05 01:30 | -28.16324 | -72.22450 | 41036 ft | 537 kts | 172° |
| 2026-05-05 01:30 | -28.23478 | -72.19961 | 41038 ft | 537 kts | 172° |
| 2026-05-05 01:31 | -28.30623 | -72.17469 | 41038 ft | 537 kts | 172° |
| 2026-05-05 01:31 | -28.37764 | -72.14977 | 41039 ft | 537 kts | 172° |
| 2026-05-05 01:32 | -28.44899 | -72.12485 | 41043 ft | 537 kts | 172° |
| 2026-05-05 01:32 | -28.52039 | -72.09989 | 41035 ft | 537 kts | 172° |
| 2026-05-05 01:33 | -28.59147 | -72.07491 | 41032 ft | 537 kts | 172° |
| 2026-05-05 01:33 | -28.66298 | -72.04962 | 41039 ft | 537 kts | 172° |
| 2026-05-05 01:34 | -28.73402 | -72.02449 | 41031 ft | 537 kts | 172° |
| 2026-05-05 01:34 | -28.80544 | -71.99923 | 41031 ft | 537 kts | 172° |
| 2026-05-05 01:35 | -28.87682 | -71.97394 | 41033 ft | 537 kts | 172° |
| 2026-05-05 01:35 | -28.94812 | -71.94865 | 41032 ft | 537 kts | 172° |
| 2026-05-05 01:36 | -29.01905 | -71.92346 | 41032 ft | 536 kts | 172° |
| 2026-05-05 01:36 | -29.09046 | -71.89806 | 41031 ft | 536 kts | 172° |
| 2026-05-05 01:37 | -29.16170 | -71.87268 | 41031 ft | 536 kts | 172° |
| 2026-05-05 01:37 | -29.23295 | -71.84726 | 41028 ft | 536 kts | 172° |
| 2026-05-05 01:38 | -29.30428 | -71.82177 | 41023 ft | 536 kts | 172° |
| 2026-05-05 01:38 | -29.37554 | -71.79628 | 41028 ft | 536 kts | 172° |
| 2026-05-05 01:39 | -29.44629 | -71.77093 | 41028 ft | 536 kts | 172° |
| 2026-05-05 01:39 | -29.51754 | -71.74543 | 41030 ft | 535 kts | 172° |
| 2026-05-05 01:40 | -29.58877 | -71.72011 | 41027 ft | 535 kts | 172° |
| 2026-05-05 01:40 | -29.65982 | -71.69485 | 41023 ft | 535 kts | 172° |
| 2026-05-05 01:41 | -29.73098 | -71.66949 | 41024 ft | 535 kts | 172° |
| 2026-05-05 01:41 | -29.80214 | -71.64407 | 41021 ft | 535 kts | 172° |
| 2026-05-05 01:42 | -29.87311 | -71.61868 | 41022 ft | 534 kts | 172° |
| 2026-05-05 01:42 | -29.94424 | -71.59319 | 41022 ft | 534 kts | 172° |
| 2026-05-05 01:43 | -30.01477 | -71.56789 | 41015 ft | 534 kts | 172° |
| 2026-05-05 01:43 | -30.08592 | -71.54232 | 41016 ft | 534 kts | 172° |
| 2026-05-05 01:44 | -30.15694 | -71.51676 | 41017 ft | 534 kts | 172° |
| 2026-05-05 01:44 | -30.22781 | -71.49121 | 41017 ft | 534 kts | 172° |
| 2026-05-05 01:45 | -30.29744 | -71.46108 | 41018 ft | 544 kts | 163° |
| 2026-05-05 01:45 | -30.36590 | -71.42285 | 41018 ft | 546 kts | 162° |
| 2026-05-05 01:46 | -30.43389 | -71.38339 | 41019 ft | 546 kts | 161° |
| 2026-05-05 01:46 | -30.50191 | -71.34380 | 41016 ft | 546 kts | 162° |
| 2026-05-05 01:47 | -30.56989 | -71.30442 | 41020 ft | 546 kts | 162° |
| 2026-05-05 01:47 | -30.63747 | -71.26526 | 41019 ft | 546 kts | 162° |
| 2026-05-05 01:48 | -30.70546 | -71.22580 | 41022 ft | 546 kts | 162° |
| 2026-05-05 01:48 | -30.77348 | -71.18625 | 41022 ft | 546 kts | 162° |
| 2026-05-05 01:49 | -30.84143 | -71.14669 | 41019 ft | 545 kts | 162° |
| 2026-05-05 01:49 | -30.90884 | -71.10740 | 41026 ft | 545 kts | 162° |
| 2026-05-05 01:50 | -30.97657 | -71.06787 | 41028 ft | 545 kts | 162° |
| 2026-05-05 01:50 | -31.04440 | -71.02819 | 41036 ft | 545 kts | 162° |
| 2026-05-05 01:51 | -31.11228 | -70.98841 | 41041 ft | 545 kts | 162° |
| 2026-05-05 01:51 | -31.17978 | -70.94879 | 41045 ft | 545 kts | 162° |
| 2026-05-05 01:52 | -31.24759 | -70.90892 | 41057 ft | 545 kts | 161° |
| 2026-05-05 01:52 | -31.31549 | -70.87012 | 41011 ft | 533 kts | 169° |
| 2026-05-05 01:53 | -31.35034 | -70.85926 | 40416 ft | 505 kts | 183° |
| 2026-05-05 01:53 | -31.38475 | -70.85650 | 39372 ft | 488 kts | 190° |
| 2026-05-05 01:53 | -31.41865 | -70.85625 | 37940 ft | 487 kts | 191° |
| 2026-05-05 01:53 | -31.45265 | -70.85626 | 36383 ft | 490 kts | 190° |
| 2026-05-05 01:54 | -31.48676 | -70.85613 | 34887 ft | 492 kts | 189° |
| 2026-05-05 01:54 | -31.52100 | -70.85585 | 33324 ft | 493 kts | 189° |
| 2026-05-05 01:54 | -31.55531 | -70.85549 | 31736 ft | 492 kts | 188° |
| 2026-05-05 01:54 | -31.58957 | -70.85508 | 30305 ft | 489 kts | 188° |
| 2026-05-05 01:55 | -31.62310 | -70.85466 | 28819 ft | 484 kts | 188° |
| 2026-05-05 01:55 | -31.65667 | -70.85424 | 27865 ft | 482 kts | 187° |
| 2026-05-05 01:55 | -31.69001 | -70.85380 | 27581 ft | 472 kts | 187° |
| 2026-05-05 01:55 | -31.72260 | -70.85336 | 27060 ft | 467 kts | 187° |
| 2026-05-05 01:56 | -31.75493 | -70.85299 | 26556 ft | 462 kts | 187° |
| 2026-05-05 01:56 | -31.78698 | -70.85227 | 26043 ft | 459 kts | 185° |
| 2026-05-05 01:56 | -31.81878 | -70.85101 | 25505 ft | 456 kts | 185° |
| 2026-05-05 01:56 | -31.85036 | -70.84975 | 24985 ft | 452 kts | 185° |
| 2026-05-05 01:57 | -31.88170 | -70.84856 | 24468 ft | 448 kts | 185° |
| 2026-05-05 01:57 | -31.91271 | -70.84741 | 23973 ft | 443 kts | 184° |
| 2026-05-05 01:57 | -31.94354 | -70.84629 | 23421 ft | 440 kts | 184° |
| 2026-05-05 01:57 | -31.97357 | -70.84520 | 22819 ft | 436 kts | 184° |
| 2026-05-05 01:58 | -32.00381 | -70.84411 | 22235 ft | 432 kts | 184° |
| 2026-05-05 01:58 | -32.03369 | -70.84304 | 21689 ft | 428 kts | 184° |
| 2026-05-05 01:58 | -32.06331 | -70.84197 | 21197 ft | 422 kts | 184° |
| 2026-05-05 01:58 | -32.09248 | -70.84091 | 20679 ft | 416 kts | 184° |
| 2026-05-05 01:59 | -32.12124 | -70.83989 | 20177 ft | 411 kts | 183° |
| 2026-05-05 01:59 | -32.14974 | -70.83887 | 19671 ft | 407 kts | 183° |
| 2026-05-05 01:59 | -32.17796 | -70.83789 | 19179 ft | 404 kts | 183° |
| 2026-05-05 01:59 | -32.20598 | -70.83689 | 18671 ft | 402 kts | 183° |
| 2026-05-05 02:00 | -32.23385 | -70.83589 | 18171 ft | 398 kts | 182° |
| 2026-05-05 02:00 | -32.26115 | -70.83488 | 17965 ft | 386 kts | 182° |
| 2026-05-05 02:00 | -32.28742 | -70.83390 | 17552 ft | 374 kts | 182° |
| 2026-05-05 02:00 | -32.31279 | -70.83295 | 16986 ft | 356 kts | 182° |
| 2026-05-05 02:01 | -32.33701 | -70.83206 | 16544 ft | 342 kts | 182° |
| 2026-05-05 02:01 | -32.36109 | -70.83125 | 16145 ft | 347 kts | 182° |
| 2026-05-05 02:01 | -32.38524 | -70.83042 | 15736 ft | 346 kts | 182° |
| 2026-05-05 02:01 | -32.40921 | -70.82957 | 15334 ft | 344 kts | 182° |
| 2026-05-05 02:02 | -32.43311 | -70.82872 | 14922 ft | 342 kts | 182° |
| 2026-05-05 02:02 | -32.45688 | -70.82787 | 14521 ft | 341 kts | 182° |
| 2026-05-05 02:02 | -32.48051 | -70.82700 | 14113 ft | 339 kts | 181° |
| 2026-05-05 02:02 | -32.50399 | -70.82616 | 13713 ft | 337 kts | 181° |
| 2026-05-05 02:03 | -32.52740 | -70.82532 | 13307 ft | 336 kts | 181° |
| 2026-05-05 02:03 | -32.55074 | -70.82441 | 12909 ft | 334 kts | 181° |
| 2026-05-05 02:03 | -32.57366 | -70.82359 | 12512 ft | 332 kts | 181° |
| 2026-05-05 02:03 | -32.59680 | -70.82277 | 12110 ft | 331 kts | 181° |
| 2026-05-05 02:04 | -32.61952 | -70.82192 | 11955 ft | 321 kts | 181° |
| 2026-05-05 02:04 | -32.64143 | -70.82112 | 11831 ft | 309 kts | 180° |
| 2026-05-05 02:04 | -32.66247 | -70.82033 | 11696 ft | 296 kts | 181° |
| 2026-05-05 02:04 | -32.68264 | -70.81961 | 11583 ft | 286 kts | 181° |
| 2026-05-05 02:05 | -32.70229 | -70.81892 | 11395 ft | 280 kts | 181° |
| 2026-05-05 02:05 | -32.72177 | -70.81827 | 11120 ft | 279 kts | 181° |
| 2026-05-05 02:05 | -32.74121 | -70.81758 | 10847 ft | 279 kts | 180° |
| 2026-05-05 02:05 | -32.76056 | -70.81688 | 10585 ft | 278 kts | 180° |
| 2026-05-05 02:06 | -32.77988 | -70.81617 | 10313 ft | 277 kts | 180° |
| 2026-05-05 02:06 | -32.79889 | -70.81549 | 10053 ft | 277 kts | 180° |
| 2026-05-05 02:06 | -32.81829 | -70.81481 | 9767 ft | 280 kts | 180° |
| 2026-05-05 02:06 | -32.83793 | -70.81410 | 9497 ft | 283 kts | 180° |
| 2026-05-05 02:07 | -32.85763 | -70.81337 | 9226 ft | 282 kts | 180° |
| 2026-05-05 02:07 | -32.87721 | -70.81266 | 8953 ft | 281 kts | 180° |
| 2026-05-05 02:07 | -32.89706 | -70.81194 | 8786 ft | 293 kts | 179° |
| 2026-05-05 02:07 | -32.91781 | -70.81121 | 8719 ft | 301 kts | 179° |
| 2026-05-05 02:08 | -32.93880 | -70.81046 | 8654 ft | 302 kts | 179° |
| 2026-05-05 02:08 | -32.95979 | -70.81083 | 8510 ft | 300 kts | 185° |
| 2026-05-05 02:08 | -32.98058 | -70.81299 | 8039 ft | 301 kts | 187° |
| 2026-05-05 02:08 | -33.00136 | -70.81558 | 7544 ft | 297 kts | 187° |
| 2026-05-05 02:09 | -33.02208 | -70.81827 | 7031 ft | 300 kts | 187° |
| 2026-05-05 02:09 | -33.04281 | -70.82052 | 6667 ft | 298 kts | 184° |
| 2026-05-05 02:09 | -33.06333 | -70.82074 | 6344 ft | 294 kts | 179° |
| 2026-05-05 02:09 | -33.08381 | -70.81972 | 5889 ft | 294 kts | 177° |
| 2026-05-05 02:10 | -33.10415 | -70.81850 | 5517 ft | 292 kts | 177° |
| 2026-05-05 02:10 | -33.12411 | -70.81732 | 5170 ft | 288 kts | 177° |
| 2026-05-05 02:10 | -33.13746 | -70.81653 | 5051 ft | 282 kts | 177° |